
Distance (Route):
Temperature : 14.2°C
Humidity : 0%
Pressure : 0hPa| Receiver | Frames | First received | Last received |
|---|---|---|---|
| ARGUS2 | 493 | 2026-09-03 23:09:14 | 2026-09-04 02:45:13 |
| Receiver | Date | Latitude | Longitude | Direction | Speed | Altitude | Climb | Temperature | Humidity | Pressure | Voltage | Killtimer | Uptime | BKT | XDATA |
|---|---|---|---|---|---|---|---|---|---|---|---|---|---|---|---|
| ARGUS2 | 2026-09-04 02:45:13 | 28.01193 | -83.41733 | 319° | 24km/h | 2331m | -1.9m/s | 14.2°C | 0% | 0hPa | 0V | 00:00:00 | 00:00:00 | 00:00:00 | |
| ARGUS2 | 2026-09-04 02:44:46 | 28.01121 | -83.41624 | 330° | 20km/h | 2380m | -1.8m/s | 14.0°C | 0% | 0hPa | 0V | 00:00:00 | 00:00:00 | 00:00:00 | |
| ARGUS2 | 2026-09-04 02:42:56 | 28.00806 | -83.41164 | 323° | 26km/h | 2559m | -1.4m/s | 13.4°C | 0% | 0hPa | 0V | 00:00:00 | 00:00:00 | 00:00:00 | |
| ARGUS2 | 2026-09-04 02:42:35 | 28.00753 | -83.41093 | 286° | 20km/h | 2592m | -1.7m/s | 13.2°C | 0% | 0hPa | 0V | 00:00:00 | 00:00:00 | 00:00:00 | |
| ARGUS2 | 2026-09-04 02:42:07 | 28.00688 | -83.40964 | 305° | 27km/h | 2644m | -1.5m/s | 13.0°C | 0% | 0hPa | 0V | 00:00:00 | 00:00:00 | 00:00:00 | |
| ARGUS2 | 2026-09-04 02:41:41 | 28.00636 | -83.40851 | 307° | 26km/h | 2689m | -1.7m/s | 12.8°C | 0% | 0hPa | 0V | 00:00:00 | 00:00:00 | 00:00:00 | |
| ARGUS2 | 2026-09-04 02:40:36 | 28.00507 | -83.40549 | 317° | 15km/h | 2818m | -1.9m/s | 12.4°C | 0% | 0hPa | 0V | 00:00:00 | 00:00:00 | 00:00:00 | |
| ARGUS2 | 2026-09-04 02:39:36 | 28.00395 | -83.40254 | 287° | 11km/h | 2946m | -2.1m/s | 11.6°C | 0% | 0hPa | 0V | 00:00:00 | 00:00:00 | 00:00:00 | |
| ARGUS2 | 2026-09-04 02:39:13 | 28.00344 | -83.40128 | 319° | 20km/h | 2996m | -2.1m/s | 11.2°C | 0% | 0hPa | 0V | 00:00:00 | 00:00:00 | 00:00:00 | |
| ARGUS2 | 2026-09-04 02:23:42 | 27.97173 | -83.37975 | 320° | 26km/h | 5040m | -2.3m/s | -1.2°C | 0% | 0hPa | 0V | 00:00:00 | 00:00:00 | 00:00:00 | |
| ARGUS2 | 2026-09-04 02:07:21 | 27.93292 | -83.36848 | 306° | 15km/h | 7378m | -2.4m/s | -14.0°C | 0% | 0hPa | 0V | 00:00:00 | 00:00:00 | 00:00:00 | |
| ARGUS2 | 2026-09-04 02:06:54 | 27.93182 | -83.36797 | 14° | 20km/h | 7444m | -2.2m/s | -14.2°C | 0% | 0hPa | 0V | 00:00:00 | 00:00:00 | 00:00:00 | |
| ARGUS2 | 2026-09-04 02:06:31 | 27.93104 | -83.36776 | 307° | 7km/h | 7499m | -2.3m/s | -14.4°C | 0% | 0hPa | 0V | 00:00:00 | 00:00:00 | 00:00:00 | |
| ARGUS2 | 2026-09-04 02:06:10 | 27.93031 | -83.36749 | 324° | 22km/h | 7548m | -2.3m/s | -14.9°C | 0% | 0hPa | 0V | 00:00:00 | 00:00:00 | 00:00:00 | |
| ARGUS2 | 2026-09-04 02:05:38 | 27.92921 | -83.36725 | 306° | 15km/h | 7626m | -2.3m/s | -15.6°C | 0% | 0hPa | 0V | 00:00:00 | 00:00:00 | 00:00:00 | |
| ARGUS2 | 2026-09-04 02:05:17 | 27.92845 | -83.36681 | 357° | 24km/h | 7681m | -2.4m/s | -16.0°C | 0% | 0hPa | 0V | 00:00:00 | 00:00:00 | 00:00:00 | |
| ARGUS2 | 2026-09-04 02:04:49 | 27.92764 | -83.36648 | 297° | 15km/h | 7752m | -2.5m/s | -16.7°C | 0% | 0hPa | 0V | 00:00:00 | 00:00:00 | 00:00:00 | |
| ARGUS2 | 2026-09-04 02:04:28 | 27.92695 | -83.36590 | 315° | 27km/h | 7802m | -2.5m/s | -16.8°C | 0% | 0hPa | 0V | 00:00:00 | 00:00:00 | 00:00:00 | |
| ARGUS2 | 2026-09-04 02:04:00 | 27.92577 | -83.36520 | 303° | 9km/h | 7872m | -2.6m/s | -17.4°C | 0% | 0hPa | 0V | 00:00:00 | 00:00:00 | 00:00:00 | |
| ARGUS2 | 2026-09-04 02:03:10 | 27.92393 | -83.36368 | 286° | 13km/h | 8000m | -2.6m/s | -18.4°C | 0% | 0hPa | 0V | 00:00:00 | 00:00:00 | 00:00:00 | |
| ARGUS2 | 2026-09-04 02:02:50 | 27.92323 | -83.36286 | 304° | 27km/h | 8055m | -2.7m/s | -18.8°C | 0% | 0hPa | 0V | 00:00:00 | 00:00:00 | 00:00:00 | |
| ARGUS2 | 2026-09-04 02:02:21 | 27.92213 | -83.36211 | 290° | 11km/h | 8129m | -2.5m/s | -18.8°C | 0% | 0hPa | 0V | 00:00:00 | 00:00:00 | 00:00:00 | |
| ARGUS2 | 2026-09-04 02:02:01 | 27.92140 | -83.36134 | 314° | 29km/h | 8187m | -2.8m/s | -19.1°C | 0% | 0hPa | 0V | 00:00:00 | 00:00:00 | 00:00:00 | |
| ARGUS2 | 2026-09-04 02:01:40 | 27.92045 | -83.36069 | 346° | 29km/h | 8241m | -2.7m/s | -19.5°C | 0% | 0hPa | 0V | 00:00:00 | 00:00:00 | 00:00:00 | |
| ARGUS2 | 2026-09-04 02:01:20 | 27.91950 | -83.36018 | 356° | 15km/h | 8301m | -2.9m/s | -19.8°C | 0% | 0hPa | 0V | 00:00:00 | 00:00:00 | 00:00:00 | |
| ARGUS2 | 2026-09-04 02:00:59 | 27.91875 | -83.35964 | 295° | 13km/h | 8357m | -2.9m/s | -20.1°C | 0% | 0hPa | 0V | 00:00:00 | 00:00:00 | 00:00:00 | |
| ARGUS2 | 2026-09-04 02:00:39 | 27.91795 | -83.35884 | 308° | 29km/h | 8420m | -3.1m/s | -20.6°C | 0% | 0hPa | 0V | 00:00:00 | 00:00:00 | 00:00:00 | |
| ARGUS2 | 2026-09-04 02:00:17 | 27.91694 | -83.35802 | 348° | 27km/h | 8483m | -3.1m/s | -21.1°C | 0% | 0hPa | 0V | 00:00:00 | 00:00:00 | 00:00:00 | |
| ARGUS2 | 2026-09-04 01:59:57 | 27.91607 | -83.35745 | 330° | 9km/h | 8545m | -3.2m/s | -21.6°C | 0% | 0hPa | 0V | 00:00:00 | 00:00:00 | 00:00:00 | |
| ARGUS2 | 2026-09-04 01:59:36 | 27.91544 | -83.35682 | 291° | 20km/h | 8610m | -3.1m/s | -22.1°C | 0% | 0hPa | 0V | 00:00:00 | 00:00:00 | 00:00:00 | |
| ARGUS2 | 2026-09-04 01:59:16 | 27.91471 | -83.35607 | 332° | 29km/h | 8670m | -3.1m/s | -22.4°C | 0% | 0hPa | 0V | 00:00:00 | 00:00:00 | 00:00:00 | |
| ARGUS2 | 2026-09-04 01:58:56 | 27.91377 | -83.35545 | 360° | 16km/h | 8734m | -3.1m/s | -22.9°C | 0% | 0hPa | 0V | 00:00:00 | 00:00:00 | 00:00:00 | |
| ARGUS2 | 2026-09-04 01:58:35 | 27.91302 | -83.35485 | 298° | 22km/h | 8799m | -2.9m/s | -23.4°C | 0% | 0hPa | 0V | 00:00:00 | 00:00:00 | 00:00:00 | |
| ARGUS2 | 2026-09-04 01:58:13 | 27.91201 | -83.35414 | 358° | 26km/h | 8866m | -2.9m/s | -23.8°C | 0% | 0hPa | 0V | 00:00:00 | 00:00:00 | 00:00:00 | |
| ARGUS2 | 2026-09-04 01:57:52 | 27.91125 | -83.35380 | 339° | 5km/h | 8925m | -3.0m/s | -24.2°C | 0% | 0hPa | 0V | 00:00:00 | 00:00:00 | 00:00:00 | |
| ARGUS2 | 2026-09-04 01:57:31 | 27.91062 | -83.35329 | 301° | 22km/h | 8989m | -3.1m/s | -24.7°C | 0% | 0hPa | 0V | 00:00:00 | 00:00:00 | 00:00:00 | |
| ARGUS2 | 2026-09-04 01:57:11 | 27.90981 | -83.35265 | 336° | 31km/h | 9049m | -3.0m/s | -25.2°C | 0% | 0hPa | 0V | 00:00:00 | 00:00:00 | 00:00:00 | |
| ARGUS2 | 2026-09-04 01:56:50 | 27.90886 | -83.35216 | 328° | 9km/h | 9110m | -3.0m/s | -25.7°C | 0% | 0hPa | 0V | 00:00:00 | 00:00:00 | 00:00:00 | |
| ARGUS2 | 2026-09-04 01:56:30 | 27.90822 | -83.35156 | 297° | 24km/h | 9169m | -3.0m/s | -26.2°C | 0% | 0hPa | 0V | 00:00:00 | 00:00:00 | 00:00:00 | |
| ARGUS2 | 2026-09-04 01:56:10 | 27.90729 | -83.35066 | 340° | 31km/h | 9229m | -2.8m/s | -26.7°C | 0% | 0hPa | 0V | 00:00:00 | 00:00:00 | 00:00:00 | |
| ARGUS2 | 2026-09-04 01:55:49 | 27.90634 | -83.35001 | 325° | 11km/h | 9284m | -2.7m/s | -27.1°C | 0% | 0hPa | 0V | 00:00:00 | 00:00:00 | 00:00:00 | |
| ARGUS2 | 2026-09-04 01:55:29 | 27.90548 | -83.34910 | 302° | 31km/h | 9340m | -2.6m/s | -27.4°C | 0% | 0hPa | 0V | 00:00:00 | 00:00:00 | 00:00:00 | |
| ARGUS2 | 2026-09-04 01:55:08 | 27.90440 | -83.34810 | 336° | 37km/h | 9390m | -2.6m/s | -27.8°C | 0% | 0hPa | 0V | 00:00:00 | 00:00:00 | 00:00:00 | |
| ARGUS2 | 2026-09-04 01:54:48 | 27.90328 | -83.34733 | 315° | 13km/h | 9442m | -2.3m/s | -28.3°C | 0% | 0hPa | 0V | 00:00:00 | 00:00:00 | 00:00:00 | |
| ARGUS2 | 2026-09-04 01:54:27 | 27.90225 | -83.34644 | 305° | 29km/h | 9493m | -2.6m/s | -28.8°C | 0% | 0hPa | 0V | 00:00:00 | 00:00:00 | 00:00:00 | |
| ARGUS2 | 2026-09-04 01:54:07 | 27.90090 | -83.34550 | 344° | 40km/h | 9546m | -2.8m/s | -29.2°C | 0% | 0hPa | 0V | 00:00:00 | 00:00:00 | 00:00:00 | |
| ARGUS2 | 2026-09-04 01:53:46 | 27.89954 | -83.34480 | 341° | 20km/h | 9596m | -2.4m/s | -29.3°C | 0% | 0hPa | 0V | 00:00:00 | 00:00:00 | 00:00:00 | |
| ARGUS2 | 2026-09-04 01:53:04 | 27.89679 | -83.34278 | 336° | 44km/h | 9704m | -2.7m/s | -30.2°C | 0% | 0hPa | 0V | 00:00:00 | 00:00:00 | 00:00:00 | |
| ARGUS2 | 2026-09-04 01:52:43 | 27.89518 | -83.34194 | 352° | 27km/h | 9761m | -2.7m/s | -30.7°C | 0% | 0hPa | 0V | 00:00:00 | 00:00:00 | 00:00:00 | |
| ARGUS2 | 2026-09-04 01:52:22 | 27.89373 | -83.34099 | 311° | 33km/h | 9819m | -2.8m/s | -31.0°C | 0% | 0hPa | 0V | 00:00:00 | 00:00:00 | 00:00:00 | |
| ARGUS2 | 2026-09-04 01:51:41 | 27.89001 | -83.33837 | 345° | 46km/h | 9941m | -3.1m/s | -31.9°C | 0% | 0hPa | 0V | 00:00:00 | 00:00:00 | 00:00:00 | |
| ARGUS2 | 2026-09-04 01:51:20 | 27.88818 | -83.33714 | 330° | 31km/h | 10001m | -3.0m/s | -32.4°C | 0% | 0hPa | 0V | 00:00:00 | 00:00:00 | 00:00:00 | |
| ARGUS2 | 2026-09-04 01:50:59 | 27.88636 | -83.33566 | 313° | 51km/h | 10066m | -3.2m/s | -33.0°C | 0% | 0hPa | 0V | 00:00:00 | 00:00:00 | 00:00:00 | |
| ARGUS2 | 2026-09-04 01:50:39 | 27.88452 | -83.33420 | 334° | 53km/h | 10129m | -3.2m/s | -33.5°C | 0% | 0hPa | 0V | 00:00:00 | 00:00:00 | 00:00:00 | |
| ARGUS2 | 2026-09-04 01:50:18 | 27.88273 | -83.33275 | 336° | 35km/h | 10192m | -2.8m/s | -33.9°C | 0% | 0hPa | 0V | 00:00:00 | 00:00:00 | 00:00:00 | |
| ARGUS2 | 2026-09-04 01:49:58 | 27.88123 | -83.33126 | 305° | 33km/h | 10254m | -3.1m/s | -34.4°C | 0% | 0hPa | 0V | 00:00:00 | 00:00:00 | 00:00:00 | |
| ARGUS2 | 2026-09-04 01:49:38 | 27.87960 | -83.32947 | 314° | 55km/h | 10318m | -2.8m/s | -34.8°C | 0% | 0hPa | 0V | 00:00:00 | 00:00:00 | 00:00:00 | |
| ARGUS2 | 2026-09-04 01:49:16 | 27.87785 | -83.32773 | 334° | 47km/h | 10378m | -2.9m/s | -35.0°C | 0% | 0hPa | 0V | 00:00:00 | 00:00:00 | 00:00:00 | |
| ARGUS2 | 2026-09-04 01:48:55 | 27.87610 | -83.32603 | 314° | 35km/h | 10436m | -2.9m/s | -35.2°C | 0% | 0hPa | 0V | 00:00:00 | 00:00:00 | 00:00:00 | |
| ARGUS2 | 2026-09-04 01:47:33 | 27.87058 | -83.31422 | 293° | 69km/h | 10687m | -3.0m/s | -36.6°C | 0% | 0hPa | 0V | 00:00:00 | 00:00:00 | 00:00:00 | |
| ARGUS2 | 2026-09-04 01:47:12 | 27.86957 | -83.31134 | 279° | 60km/h | 10744m | -2.9m/s | -37.0°C | 0% | 0hPa | 0V | 00:00:00 | 00:00:00 | 00:00:00 | |
| ARGUS2 | 2026-09-04 01:46:52 | 27.86822 | -83.30795 | 300° | 47km/h | 10798m | -2.5m/s | -37.5°C | 0% | 0hPa | 0V | 00:00:00 | 00:00:00 | 00:00:00 | |
| ARGUS2 | 2026-09-04 01:46:31 | 27.86744 | -83.30487 | 299° | 53km/h | 10852m | -2.0m/s | -38.0°C | 0% | 0hPa | 0V | 00:00:00 | 00:00:00 | 00:00:00 | |
| ARGUS2 | 2026-09-04 01:46:11 | 27.86628 | -83.30169 | 289° | 69km/h | 10905m | -2.5m/s | -38.4°C | 0% | 0hPa | 0V | 00:00:00 | 00:00:00 | 00:00:00 | |
| ARGUS2 | 2026-09-04 01:45:50 | 27.86483 | -83.29872 | 287° | 51km/h | 10957m | -2.9m/s | -38.8°C | 0% | 0hPa | 0V | 00:00:00 | 00:00:00 | 00:00:00 | |
| ARGUS2 | 2026-09-04 01:45:30 | 27.86339 | -83.29527 | 304° | 51km/h | 11012m | -2.5m/s | -39.2°C | 0% | 0hPa | 0V | 00:00:00 | 00:00:00 | 00:00:00 | |
| ARGUS2 | 2026-09-04 01:45:09 | 27.86249 | -83.29256 | 284° | 62km/h | 11064m | -2.8m/s | -39.6°C | 0% | 0hPa | 0V | 00:00:00 | 00:00:00 | 00:00:00 | |
| ARGUS2 | 2026-09-04 01:44:49 | 27.86102 | -83.28947 | 302° | 47km/h | 11119m | -2.8m/s | -39.9°C | 0% | 0hPa | 0V | 00:00:00 | 00:00:00 | 00:00:00 | |
| ARGUS2 | 2026-09-04 01:44:27 | 27.85958 | -83.28667 | 290° | 62km/h | 11178m | -2.7m/s | -40.3°C | 0% | 0hPa | 0V | 00:00:00 | 00:00:00 | 00:00:00 | |
| ARGUS2 | 2026-09-04 01:44:07 | 27.85794 | -83.28312 | 304° | 77km/h | 11235m | -3.3m/s | -40.7°C | 0% | 0hPa | 0V | 00:00:00 | 00:00:00 | 00:00:00 | |
| ARGUS2 | 2026-09-04 01:43:47 | 27.85634 | -83.27998 | 296° | 73km/h | 11296m | -2.8m/s | -41.2°C | 0% | 0hPa | 0V | 00:00:00 | 00:00:00 | 00:00:00 | |
| ARGUS2 | 2026-09-04 01:43:26 | 27.85423 | -83.27681 | 308° | 53km/h | 11358m | -3.2m/s | -41.7°C | 0% | 0hPa | 0V | 00:00:00 | 00:00:00 | 00:00:00 | |
| ARGUS2 | 2026-09-04 01:43:06 | 27.85271 | -83.27351 | 308° | 71km/h | 11425m | -3.1m/s | -42.2°C | 0% | 0hPa | 0V | 00:00:00 | 00:00:00 | 00:00:00 | |
| ARGUS2 | 2026-09-04 01:42:45 | 27.85056 | -83.27084 | 315° | 51km/h | 11489m | -3.5m/s | -42.7°C | 0% | 0hPa | 0V | 00:00:00 | 00:00:00 | 00:00:00 | |
| ARGUS2 | 2026-09-04 01:42:25 | 27.84876 | -83.26777 | 317° | 62km/h | 11556m | -3.0m/s | -43.3°C | 0% | 0hPa | 0V | 00:00:00 | 00:00:00 | 00:00:00 | |
| ARGUS2 | 2026-09-04 01:42:04 | 27.84719 | -83.26513 | 302° | 71km/h | 11617m | -3.0m/s | -43.8°C | 0% | 0hPa | 0V | 00:00:00 | 00:00:00 | 00:00:00 | |
| ARGUS2 | 2026-09-04 01:41:44 | 27.84532 | -83.26238 | 293° | 57km/h | 11681m | -3.1m/s | -44.4°C | 0% | 0hPa | 0V | 00:00:00 | 00:00:00 | 00:00:00 | |
| ARGUS2 | 2026-09-04 01:41:23 | 27.84349 | -83.25953 | 310° | 49km/h | 11742m | -2.8m/s | -44.8°C | 0% | 0hPa | 0V | 00:00:00 | 00:00:00 | 00:00:00 | |
| ARGUS2 | 2026-09-04 01:41:03 | 27.84196 | -83.25659 | 313° | 68km/h | 11805m | -2.9m/s | -45.3°C | 0% | 0hPa | 0V | 00:00:00 | 00:00:00 | 00:00:00 | |
| ARGUS2 | 2026-09-04 01:40:42 | 27.84052 | -83.25414 | 291° | 60km/h | 11864m | -2.9m/s | -45.8°C | 0% | 0hPa | 0V | 00:00:00 | 00:00:00 | 00:00:00 | |
| ARGUS2 | 2026-09-04 01:40:22 | 27.83886 | -83.25115 | 292° | 46km/h | 11926m | -2.9m/s | -46.3°C | 0% | 0hPa | 0V | 00:00:00 | 00:00:00 | 00:00:00 | |
| ARGUS2 | 2026-09-04 01:40:01 | 27.83738 | -83.24825 | 309° | 46km/h | 11985m | -3.1m/s | -46.8°C | 0% | 0hPa | 0V | 00:00:00 | 00:00:00 | 00:00:00 | |
| ARGUS2 | 2026-09-04 01:39:41 | 27.83593 | -83.24528 | 314° | 53km/h | 12049m | -3.2m/s | -47.4°C | 0% | 0hPa | 0V | 00:00:00 | 00:00:00 | 00:00:00 | |
| ARGUS2 | 2026-09-04 01:39:19 | 27.83449 | -83.24226 | 311° | 62km/h | 12114m | -3.1m/s | -47.9°C | 0% | 0hPa | 0V | 00:00:00 | 00:00:00 | 00:00:00 | |
| ARGUS2 | 2026-09-04 01:38:59 | 27.83326 | -83.23972 | 290° | 64km/h | 12173m | -3.2m/s | -48.5°C | 0% | 0hPa | 0V | 00:00:00 | 00:00:00 | 00:00:00 | |
| ARGUS2 | 2026-09-04 01:38:38 | 27.83154 | -83.23679 | 292° | 47km/h | 12240m | -3.1m/s | -49.1°C | 0% | 0hPa | 0V | 00:00:00 | 00:00:00 | 00:00:00 | |
| ARGUS2 | 2026-09-04 01:38:18 | 27.83003 | -83.23380 | 314° | 51km/h | 12302m | -3.2m/s | -49.6°C | 0% | 0hPa | 0V | 00:00:00 | 00:00:00 | 00:00:00 | |
| ARGUS2 | 2026-09-04 01:37:58 | 27.82891 | -83.23082 | 294° | 66km/h | 12367m | -2.9m/s | -50.2°C | 0% | 0hPa | 0V | 00:00:00 | 00:00:00 | 00:00:00 | |
| ARGUS2 | 2026-09-04 01:37:37 | 27.82753 | -83.22811 | 287° | 58km/h | 12424m | -2.9m/s | -50.7°C | 0% | 0hPa | 0V | 00:00:00 | 00:00:00 | 00:00:00 | |
| ARGUS2 | 2026-09-04 01:37:17 | 27.82610 | -83.22514 | 289° | 49km/h | 12487m | -2.9m/s | -51.2°C | 0% | 0hPa | 0V | 00:00:00 | 00:00:00 | 00:00:00 | |
| ARGUS2 | 2026-09-04 01:36:56 | 27.82478 | -83.22199 | 312° | 62km/h | 12544m | -3.2m/s | -51.7°C | 0% | 0hPa | 0V | 00:00:00 | 00:00:00 | 00:00:00 | |
| ARGUS2 | 2026-09-04 01:36:15 | 27.82196 | -83.21648 | 289° | 60km/h | 12671m | -3.4m/s | -52.8°C | 0% | 0hPa | 0V | 00:00:00 | 00:00:00 | 00:00:00 | |
| ARGUS2 | 2026-09-04 01:35:55 | 27.82038 | -83.21366 | 289° | 49km/h | 12741m | -3.5m/s | -53.5°C | 0% | 0hPa | 0V | 00:00:00 | 00:00:00 | 00:00:00 | |
| ARGUS2 | 2026-09-04 01:35:34 | 27.81886 | -83.21077 | 314° | 46km/h | 12812m | -3.7m/s | -54.1°C | 0% | 0hPa | 0V | 00:00:00 | 00:00:00 | 00:00:00 | |
| ARGUS2 | 2026-09-04 01:35:14 | 27.81767 | -83.20786 | 305° | 68km/h | 12887m | -3.6m/s | -54.7°C | 0% | 0hPa | 0V | 00:00:00 | 00:00:00 | 00:00:00 | |
| ARGUS2 | 2026-09-04 01:34:53 | 27.81585 | -83.20542 | 312° | 51km/h | 12960m | -3.8m/s | -55.3°C | 0% | 0hPa | 0V | 00:00:00 | 00:00:00 | 00:00:00 | |
| ARGUS2 | 2026-09-04 01:34:33 | 27.81413 | -83.20309 | 297° | 44km/h | 13042m | -4.1m/s | -56.0°C | 0% | 0hPa | 0V | 00:00:00 | 00:00:00 | 00:00:00 | |
| ARGUS2 | 2026-09-04 01:34:12 | 27.81308 | -83.20017 | 304° | 68km/h | 13123m | -4.4m/s | -56.7°C | 0% | 0hPa | 0V | 00:00:00 | 00:00:00 | 00:00:00 | |
| ARGUS2 | 2026-09-04 01:33:52 | 27.81164 | -83.19771 | 284° | 49km/h | 13212m | -4.4m/s | -57.4°C | 0% | 0hPa | 0V | 00:00:00 | 00:00:00 | 00:00:00 | |
| ARGUS2 | 2026-09-04 01:33:31 | 27.81068 | -83.19458 | 298° | 64km/h | 13298m | -4.4m/s | -58.2°C | 0% | 0hPa | 0V | 00:00:00 | 00:00:00 | 00:00:00 | |
| ARGUS2 | 2026-09-04 01:33:10 | 27.80957 | -83.19213 | 286° | 58km/h | 13384m | -4.3m/s | -58.9°C | 0% | 0hPa | 0V | 00:00:00 | 00:00:00 | 00:00:00 | |
| ARGUS2 | 2026-09-04 01:32:50 | 27.80836 | -83.18954 | 285° | 49km/h | 13472m | -3.8m/s | -59.7°C | 0% | 0hPa | 0V | 00:00:00 | 00:00:00 | 00:00:00 | |
| ARGUS2 | 2026-09-04 01:32:29 | 27.80715 | -83.18669 | 311° | 42km/h | 13554m | -4.1m/s | -60.4°C | 0% | 0hPa | 0V | 00:00:00 | 00:00:00 | 00:00:00 | |
| ARGUS2 | 2026-09-04 01:32:08 | 27.80568 | -83.18375 | 314° | 51km/h | 13635m | -3.8m/s | -61.0°C | 0% | 0hPa | 0V | 00:00:00 | 00:00:00 | 00:00:00 | |
| ARGUS2 | 2026-09-04 01:31:48 | 27.80436 | -83.18097 | 313° | 60km/h | 13713m | -4.1m/s | -61.5°C | 0% | 0hPa | 0V | 00:00:00 | 00:00:00 | 00:00:00 | |
| ARGUS2 | 2026-09-04 01:31:28 | 27.80308 | -83.17792 | 305° | 68km/h | 13796m | -4.1m/s | -62.1°C | 0% | 0hPa | 0V | 00:00:00 | 00:00:00 | 00:00:00 | |
| ARGUS2 | 2026-09-04 01:31:07 | 27.80195 | -83.17515 | 296° | 69km/h | 13876m | -4.0m/s | -62.7°C | 0% | 0hPa | 0V | 00:00:00 | 00:00:00 | 00:00:00 | |
| ARGUS2 | 2026-09-04 01:30:47 | 27.80065 | -83.17210 | 303° | 69km/h | 13963m | -3.9m/s | -63.4°C | 0% | 0hPa | 0V | 00:00:00 | 00:00:00 | 00:00:00 | |
| ARGUS2 | 2026-09-04 01:30:26 | 27.79926 | -83.16910 | 311° | 66km/h | 14046m | -4.1m/s | -64.1°C | 0% | 0hPa | 0V | 00:00:00 | 00:00:00 | 00:00:00 | |
| ARGUS2 | 2026-09-04 01:30:06 | 27.79774 | -83.16608 | 309° | 46km/h | 14136m | -4.8m/s | -64.8°C | 0% | 0hPa | 0V | 00:00:00 | 00:00:00 | 00:00:00 | |
| ARGUS2 | 2026-09-04 01:29:45 | 27.79648 | -83.16349 | 288° | 37km/h | 14221m | -4.5m/s | -65.1°C | 0% | 0hPa | 0V | 00:00:00 | 00:00:00 | 00:00:00 | |
| ARGUS2 | 2026-09-04 01:29:03 | 27.79380 | -83.15759 | 313° | 69km/h | 14404m | -4.6m/s | -66.0°C | 0% | 0hPa | 0V | 00:00:00 | 00:00:00 | 00:00:00 | |
| ARGUS2 | 2026-09-04 01:28:43 | 27.79207 | -83.15492 | 323° | 49km/h | 14491m | -4.1m/s | -65.9°C | 0% | 0hPa | 0V | 00:00:00 | 00:00:00 | 00:00:00 | |
| ARGUS2 | 2026-09-04 01:28:22 | 27.79029 | -83.15234 | 296° | 49km/h | 14576m | -3.8m/s | -66.0°C | 0% | 0hPa | 0V | 00:00:00 | 00:00:00 | 00:00:00 | |
| ARGUS2 | 2026-09-04 01:28:02 | 27.78863 | -83.14999 | 284° | 33km/h | 14651m | -3.8m/s | -65.1°C | 0% | 0hPa | 0V | 00:00:00 | 00:00:00 | 00:00:00 | |
| ARGUS2 | 2026-09-04 01:27:42 | 27.78752 | -83.14865 | 312° | 13km/h | 14726m | -4.1m/s | -63.8°C | 0% | 0hPa | 0V | 00:00:00 | 00:00:00 | 00:00:00 | |
| ARGUS2 | 2026-09-04 01:27:21 | 27.78716 | -83.14752 | 293° | 9km/h | 14803m | -3.7m/s | -63.8°C | 0% | 0hPa | 0V | 00:00:00 | 00:00:00 | 00:00:00 | |
| ARGUS2 | 2026-09-04 01:27:00 | 27.78743 | -83.14637 | 253° | 29km/h | 14879m | -3.9m/s | -63.4°C | 0% | 0hPa | 0V | 00:00:00 | 00:00:00 | 00:00:00 | |
| ARGUS2 | 2026-09-04 01:26:40 | 27.78775 | -83.14525 | 281° | 16km/h | 14962m | -2.5m/s | -64.1°C | 0% | 0hPa | 0V | 00:00:00 | 00:00:00 | 00:00:00 | |
| ARGUS2 | 2026-09-04 01:26:19 | 27.78760 | -83.14419 | 250° | 15km/h | 15027m | -3.2m/s | -64.7°C | 0% | 0hPa | 0V | 00:00:00 | 00:00:00 | 00:00:00 | |
| ARGUS2 | 2026-09-04 01:25:59 | 27.78752 | -83.14328 | 270° | 20km/h | 15095m | -3.7m/s | -65.2°C | 0% | 0hPa | 0V | 00:00:00 | 00:00:00 | 00:00:00 | |
| ARGUS2 | 2026-09-04 01:25:18 | 27.78721 | -83.14060 | 269° | 40km/h | 15250m | -5.5m/s | -65.3°C | 0% | 0hPa | 0V | 00:00:00 | 00:00:00 | 00:00:00 | |
| ARGUS2 | 2026-09-04 01:24:58 | 27.78723 | -83.13854 | 272° | 37km/h | 15335m | -4.2m/s | -65.8°C | 0% | 0hPa | 0V | 00:00:00 | 00:00:00 | 00:00:00 | |
| ARGUS2 | 2026-09-04 01:24:37 | 27.78733 | -83.13637 | 275° | 27km/h | 15417m | -4.0m/s | -66.4°C | 0% | 0hPa | 0V | 00:00:00 | 00:00:00 | 00:00:00 | |
| ARGUS2 | 2026-09-04 01:24:17 | 27.78722 | -83.13412 | 276° | 51km/h | 15508m | -4.9m/s | -66.8°C | 0% | 0hPa | 0V | 00:00:00 | 00:00:00 | 00:00:00 | |
| ARGUS2 | 2026-09-04 01:23:56 | 27.78697 | -83.13160 | 276° | 42km/h | 15600m | -5.0m/s | -66.7°C | 0% | 0hPa | 0V | 00:00:00 | 00:00:00 | 00:00:00 | |
| ARGUS2 | 2026-09-04 01:23:14 | 27.78607 | -83.12735 | 295° | 33km/h | 15834m | -5.0m/s | -67.5°C | 0% | 0hPa | 0V | 00:00:00 | 00:00:00 | 00:00:00 | |
| ARGUS2 | 2026-09-04 01:22:54 | 27.78555 | -83.12580 | 273° | 35km/h | 15954m | -4.8m/s | -68.1°C | 0% | 0hPa | 0V | 00:00:00 | 00:00:00 | 00:00:00 | |
| ARGUS2 | 2026-09-04 01:22:34 | 27.78529 | -83.12424 | 280° | 37km/h | 16053m | -4.6m/s | -68.8°C | 0% | 0hPa | 0V | 00:00:00 | 00:00:00 | 00:00:00 | |
| ARGUS2 | 2026-09-04 01:22:13 | 27.78493 | -83.12289 | 299° | 29km/h | 16147m | -4.2m/s | -69.1°C | 0% | 0hPa | 0V | 00:00:00 | 00:00:00 | 00:00:00 | |
| ARGUS2 | 2026-09-04 01:21:53 | 27.78412 | -83.12150 | 312° | 40km/h | 16236m | -4.3m/s | -68.7°C | 0% | 0hPa | 0V | 00:00:00 | 00:00:00 | 00:00:00 | |
| ARGUS2 | 2026-09-04 01:21:32 | 27.78304 | -83.12084 | 21° | 13km/h | 16320m | -4.3m/s | -69.3°C | 0% | 0hPa | 0V | 00:00:00 | 00:00:00 | 00:00:00 | |
| ARGUS2 | 2026-09-04 01:21:11 | 27.78226 | -83.12017 | 320° | 33km/h | 16401m | -3.9m/s | -69.4°C | 0% | 0hPa | 0V | 00:00:00 | 00:00:00 | 00:00:00 | |
| ARGUS2 | 2026-09-04 01:20:51 | 27.78178 | -83.11977 | 217° | 15km/h | 16481m | -3.8m/s | -69.4°C | 0% | 0hPa | 0V | 00:00:00 | 00:00:00 | 00:00:00 | |
| ARGUS2 | 2026-09-04 01:20:30 | 27.78169 | -83.11878 | 330° | 24km/h | 16565m | -4.3m/s | -70.1°C | 0% | 0hPa | 0V | 00:00:00 | 00:00:00 | 00:00:00 | |
| ARGUS2 | 2026-09-04 01:20:10 | 27.78203 | -83.11804 | 230° | 37km/h | 16648m | -4.1m/s | -70.1°C | 0% | 0hPa | 0V | 00:00:00 | 00:00:00 | 00:00:00 | |
| ARGUS2 | 2026-09-04 01:19:50 | 27.78255 | -83.11691 | 178° | 11km/h | 16740m | -4.4m/s | -70.6°C | 0% | 0hPa | 0V | 00:00:00 | 00:00:00 | 00:00:00 | |
| ARGUS2 | 2026-09-04 01:19:29 | 27.78347 | -83.11589 | 254° | 38km/h | 16829m | -4.5m/s | -71.2°C | 0% | 0hPa | 0V | 00:00:00 | 00:00:00 | 00:00:00 | |
| ARGUS2 | 2026-09-04 01:19:09 | 27.78406 | -83.11469 | 202° | 33km/h | 16924m | -4.8m/s | -71.0°C | 0% | 0hPa | 0V | 00:00:00 | 00:00:00 | 00:00:00 | |
| ARGUS2 | 2026-09-04 01:18:48 | 27.78530 | -83.11279 | 260° | 37km/h | 17024m | -5.3m/s | -70.4°C | 0% | 0hPa | 0V | 00:00:00 | 00:00:00 | 00:00:00 | |
| ARGUS2 | 2026-09-04 01:18:28 | 27.78645 | -83.11097 | 240° | 57km/h | 17136m | -5.6m/s | -70.7°C | 0% | 0hPa | 0V | 00:00:00 | 00:00:00 | 00:00:00 | |
| ARGUS2 | 2026-09-04 01:18:07 | 27.78695 | -83.10892 | 224° | 15km/h | 17259m | -5.7m/s | -70.2°C | 0% | 0hPa | 0V | 00:00:00 | 00:00:00 | 00:00:00 | |
| ARGUS2 | 2026-09-04 01:17:22 | 27.78884 | -83.10573 | 237° | 55km/h | 17488m | -5.2m/s | -70.7°C | 0% | 0hPa | 0V | 00:00:00 | 00:00:00 | 00:00:00 | |
| ARGUS2 | 2026-09-04 01:16:41 | 27.79037 | -83.10181 | 267° | 53km/h | 17707m | -5.1m/s | -71.1°C | 0% | 0hPa | 0V | 00:00:00 | 00:00:00 | 00:00:00 | |
| ARGUS2 | 2026-09-04 01:16:21 | 27.79072 | -83.10005 | 220° | 27km/h | 17824m | -6.1m/s | -71.1°C | 0% | 0hPa | 0V | 00:00:00 | 00:00:00 | 00:00:00 | |
| ARGUS2 | 2026-09-04 01:16:00 | 27.79069 | -83.09832 | 305° | 40km/h | 17942m | -5.8m/s | -70.0°C | 0% | 0hPa | 0V | 00:00:00 | 00:00:00 | 00:00:00 | |
| ARGUS2 | 2026-09-04 01:15:40 | 27.79065 | -83.09644 | 265° | 55km/h | 18064m | -5.7m/s | -68.8°C | 0% | 0hPa | 0V | 00:00:00 | 00:00:00 | 00:00:00 | |
| ARGUS2 | 2026-09-04 01:15:19 | 27.79006 | -83.09456 | 292° | 13km/h | 18176m | -5.4m/s | -69.0°C | 0% | 0hPa | 0V | 00:00:00 | 00:00:00 | 00:00:00 | |
| ARGUS2 | 2026-09-04 01:14:59 | 27.78918 | -83.09303 | 327° | 49km/h | 18289m | -5.6m/s | -68.0°C | 0% | 0hPa | 0V | 00:00:00 | 00:00:00 | 00:00:00 | |
| ARGUS2 | 2026-09-04 01:14:38 | 27.78807 | -83.09264 | 257° | 13km/h | 18408m | -6.0m/s | -68.0°C | 0% | 0hPa | 0V | 00:00:00 | 00:00:00 | 00:00:00 | |
| ARGUS2 | 2026-09-04 01:14:17 | 27.78770 | -83.09198 | 54° | 15km/h | 18531m | -6.7m/s | -66.1°C | 0% | 0hPa | 0V | 00:00:00 | 00:00:00 | 00:00:00 | |
| ARGUS2 | 2026-09-04 01:13:56 | 27.78816 | -83.09129 | 256° | 42km/h | 18665m | -6.6m/s | -65.1°C | 0% | 0hPa | 0V | 00:00:00 | 00:00:00 | 00:00:00 | |
| ARGUS2 | 2026-09-04 01:13:36 | 27.78935 | -83.09024 | 191° | 49km/h | 18795m | -6.6m/s | -64.5°C | 0% | 0hPa | 0V | 00:00:00 | 00:00:00 | 00:00:00 | |
| ARGUS2 | 2026-09-04 01:12:55 | 27.79224 | -83.08673 | 230° | 62km/h | 19078m | -7.0m/s | -64.1°C | 0% | 0hPa | 0V | 00:00:00 | 00:00:00 | 00:00:00 | |
| ARGUS2 | 2026-09-04 01:12:34 | 27.79290 | -83.08488 | 182° | 15km/h | 19220m | -6.4m/s | -64.7°C | 0% | 0hPa | 0V | 00:00:00 | 00:00:00 | 00:00:00 | |
| ARGUS2 | 2026-09-04 01:12:14 | 27.79394 | -83.08378 | 262° | 38km/h | 19351m | -6.3m/s | -64.9°C | 0% | 0hPa | 0V | 00:00:00 | 00:00:00 | 00:00:00 | |
| ARGUS2 | 2026-09-04 01:11:54 | 27.79482 | -83.08301 | 196° | 47km/h | 19481m | -6.2m/s | -65.4°C | 0% | 0hPa | 0V | 00:00:00 | 00:00:00 | 00:00:00 | |
| ARGUS2 | 2026-09-04 01:11:13 | 27.79676 | -83.08064 | 250° | 58km/h | 19723m | -5.7m/s | -64.4°C | 0% | 0hPa | 0V | 00:00:00 | 00:00:00 | 00:00:00 | |
| ARGUS2 | 2026-09-04 01:10:52 | 27.79685 | -83.07859 | 243° | 18km/h | 19840m | -6.1m/s | -62.9°C | 0% | 0hPa | 0V | 00:00:00 | 00:00:00 | 00:00:00 | |
| ARGUS2 | 2026-09-04 01:10:32 | 27.79669 | -83.07614 | 316° | 42km/h | 19966m | -6.2m/s | -61.7°C | 0% | 0hPa | 0V | 00:00:00 | 00:00:00 | 00:00:00 | |
| ARGUS2 | 2026-09-04 01:10:11 | 27.79666 | -83.07436 | 264° | 60km/h | 20096m | -6.6m/s | -60.6°C | 0% | 0hPa | 0V | 00:00:00 | 00:00:00 | 00:00:00 | |
| ARGUS2 | 2026-09-04 01:09:51 | 27.79653 | -83.07210 | 215° | 31km/h | 20244m | -7.5m/s | -59.4°C | 0% | 0hPa | 0V | 00:00:00 | 00:00:00 | 00:00:00 | |
| ARGUS2 | 2026-09-04 01:09:30 | 27.79745 | -83.06967 | 270° | 55km/h | 20393m | -7.7m/s | -58.1°C | 0% | 0hPa | 0V | 00:00:00 | 00:00:00 | 00:00:00 | |
| ARGUS2 | 2026-09-04 01:09:10 | 27.79851 | -83.06736 | 247° | 73km/h | 20555m | -7.8m/s | -58.1°C | 0% | 0hPa | 0V | 00:00:00 | 00:00:00 | 00:00:00 | |
| ARGUS2 | 2026-09-04 01:08:48 | 27.79846 | -83.06473 | 222° | 29km/h | 20712m | -7.3m/s | -59.0°C | 0% | 0hPa | 0V | 00:00:00 | 00:00:00 | 00:00:00 | |
| ARGUS2 | 2026-09-04 01:08:29 | 27.79827 | -83.06253 | 322° | 46km/h | 20860m | -7.4m/s | -59.3°C | 0% | 0hPa | 0V | 00:00:00 | 00:00:00 | 00:00:00 | |
| ARGUS2 | 2026-09-04 01:07:47 | 27.79839 | -83.05788 | 220° | 31km/h | 21162m | -7.3m/s | -58.7°C | 0% | 0hPa | 0V | 00:00:00 | 00:00:00 | 00:00:00 | |
| ARGUS2 | 2026-09-04 01:07:26 | 27.79859 | -83.05540 | 332° | 27km/h | 21309m | -7.2m/s | -59.1°C | 0% | 0hPa | 0V | 00:00:00 | 00:00:00 | 00:00:00 | |
| ARGUS2 | 2026-09-04 01:07:06 | 27.79892 | -83.05343 | 268° | 75km/h | 21453m | -7.3m/s | -57.7°C | 0% | 0hPa | 0V | 00:00:00 | 00:00:00 | 00:00:00 | |
| ARGUS2 | 2026-09-04 01:06:46 | 27.79906 | -83.05064 | 235° | 58km/h | 21601m | -7.0m/s | -57.0°C | 0% | 0hPa | 0V | 00:00:00 | 00:00:00 | 00:00:00 | |
| ARGUS2 | 2026-09-04 01:06:25 | 27.79892 | -83.04785 | 326° | 29km/h | 21751m | -7.7m/s | -57.6°C | 0% | 0hPa | 0V | 00:00:00 | 00:00:00 | 00:00:00 | |
| ARGUS2 | 2026-09-04 01:06:05 | 27.79908 | -83.04568 | 288° | 60km/h | 21915m | -7.7m/s | -57.4°C | 0% | 0hPa | 0V | 00:00:00 | 00:00:00 | 00:00:00 | |
| ARGUS2 | 2026-09-04 01:05:44 | 27.79970 | -83.04351 | 230° | 77km/h | 22074m | -8.1m/s | -57.6°C | 0% | 0hPa | 0V | 00:00:00 | 00:00:00 | 00:00:00 | |
| ARGUS2 | 2026-09-04 01:05:24 | 27.80078 | -83.04058 | 204° | 42km/h | 22239m | -7.9m/s | -57.2°C | 0% | 0hPa | 0V | 00:00:00 | 00:00:00 | 00:00:00 | |
| ARGUS2 | 2026-09-04 01:05:03 | 27.80213 | -83.03722 | 280° | 78km/h | 22406m | -8.6m/s | -57.7°C | 0% | 0hPa | 0V | 00:00:00 | 00:00:00 | 00:00:00 | |
| ARGUS2 | 2026-09-04 01:04:43 | 27.80284 | -83.03338 | 258° | 97km/h | 22592m | -8.8m/s | -58.1°C | 0% | 0hPa | 0V | 00:00:00 | 00:00:00 | 00:00:00 | |
| ARGUS2 | 2026-09-04 01:04:22 | 27.80249 | -83.02977 | 253° | 40km/h | 22767m | -8.6m/s | -58.4°C | 0% | 0hPa | 0V | 00:00:00 | 00:00:00 | 00:00:00 | |
| ARGUS2 | 2026-09-04 01:03:40 | 27.80269 | -83.02312 | 281° | 71km/h | 23147m | -8.7m/s | -56.9°C | 0% | 0hPa | 0V | 00:00:00 | 00:00:00 | 00:00:00 | |
| ARGUS2 | 2026-09-04 01:03:20 | 27.80261 | -83.02108 | 235° | 57km/h | 23322m | -8.8m/s | -57.2°C | 0% | 0hPa | 0V | 00:00:00 | 00:00:00 | 00:00:00 | |
| ARGUS2 | 2026-09-04 01:02:59 | 27.80208 | -83.01831 | 277° | 16km/h | 23498m | -8.1m/s | -56.6°C | 0% | 0hPa | 0V | 00:00:00 | 00:00:00 | 00:00:00 | |
| ARGUS2 | 2026-09-04 01:02:39 | 27.80201 | -83.01486 | 295° | 82km/h | 23667m | -8.5m/s | -55.7°C | 0% | 0hPa | 0V | 00:00:00 | 00:00:00 | 00:00:00 | |
| ARGUS2 | 2026-09-04 01:02:19 | 27.80193 | -83.01160 | 274° | 88km/h | 23846m | -9.2m/s | -55.0°C | 0% | 0hPa | 0V | 00:00:00 | 00:00:00 | 00:00:00 | |
| ARGUS2 | 2026-09-04 01:01:58 | 27.80116 | -83.00912 | 221° | 24km/h | 24027m | -9.3m/s | -52.8°C | 0% | 0hPa | 0V | 00:00:00 | 00:00:00 | 00:00:00 | |
| ARGUS2 | 2026-09-04 01:01:38 | 27.80037 | -83.00618 | 335° | 40km/h | 24232m | -10.2m/s | -53.2°C | 0% | 0hPa | 0V | 00:00:00 | 00:00:00 | 00:00:00 | |
| ARGUS2 | 2026-09-04 01:01:17 | 27.79957 | -83.00302 | 304° | 99km/h | 24444m | -11.1m/s | -54.0°C | 0% | 0hPa | 0V | 00:00:00 | 00:00:00 | 00:00:00 | |
| ARGUS2 | 2026-09-04 01:00:57 | 27.79839 | -83.00027 | 274° | 77km/h | 24685m | -11.9m/s | -53.1°C | 0% | 0hPa | 0V | 00:00:00 | 00:00:00 | 00:00:00 | |
| ARGUS2 | 2026-09-04 01:00:36 | 27.79692 | -82.99799 | 245° | 18km/h | 24926m | -12.1m/s | -52.5°C | 0% | 0hPa | 0V | 00:00:00 | 00:00:00 | 00:00:00 | |
| ARGUS2 | 2026-09-04 01:00:16 | 27.79583 | -82.99515 | 353° | 42km/h | 25188m | -12.5m/s | -52.6°C | 0% | 0hPa | 0V | 00:00:00 | 00:00:00 | 00:00:00 | |
| ARGUS2 | 2026-09-04 00:59:55 | 27.79517 | -82.99248 | 299° | 100km/h | 25442m | -12.8m/s | -52.3°C | 0% | 0hPa | 0V | 00:00:00 | 00:00:00 | 00:00:00 | |
| ARGUS2 | 2026-09-04 00:59:35 | 27.79435 | -82.98958 | 268° | 86km/h | 25711m | -12.3m/s | -53.2°C | 0% | 0hPa | 0V | 00:00:00 | 00:00:00 | 00:00:00 | |
| ARGUS2 | 2026-09-04 00:59:14 | 27.79357 | -82.98688 | 214° | 44km/h | 25961m | -12.4m/s | -52.8°C | 0% | 0hPa | 0V | 00:00:00 | 00:00:00 | 00:00:00 | |
| ARGUS2 | 2026-09-04 00:58:54 | 27.79334 | -82.98369 | 268° | 16km/h | 26220m | -12.6m/s | -51.5°C | 0% | 0hPa | 0V | 00:00:00 | 00:00:00 | 00:00:00 | |
| ARGUS2 | 2026-09-04 00:58:33 | 27.79358 | -82.97983 | 299° | 84km/h | 26457m | -10.7m/s | -49.6°C | 0% | 0hPa | 0V | 00:00:00 | 00:00:00 | 00:00:00 | |
| ARGUS2 | 2026-09-04 00:58:13 | 27.79338 | -82.97583 | 284° | 106km/h | 26710m | -11.7m/s | -48.2°C | 0% | 0hPa | 0V | 00:00:00 | 00:00:00 | 00:00:00 | |
| ARGUS2 | 2026-09-04 00:57:52 | 27.79292 | -82.97230 | 262° | 93km/h | 26966m | -13.0m/s | -47.5°C | 0% | 0hPa | 0V | 00:00:00 | 00:00:00 | 00:00:00 | |
| ARGUS2 | 2026-09-04 00:57:31 | 27.79249 | -82.96965 | 221° | 57km/h | 27226m | -13.4m/s | -45.7°C | 0% | 0hPa | 0V | 00:00:00 | 00:00:00 | 00:00:00 | |
| ARGUS2 | 2026-09-04 00:57:10 | 27.79247 | -82.96652 | 222° | 29km/h | 27510m | -14.0m/s | -45.6°C | 0% | 0hPa | 0V | 00:00:00 | 00:00:00 | 00:00:00 | |
| ARGUS2 | 2026-09-04 00:56:50 | 27.79234 | -82.96320 | 331° | 47km/h | 27792m | -14.4m/s | -45.7°C | 0% | 0hPa | 0V | 00:00:00 | 00:00:00 | 00:00:00 | |
| ARGUS2 | 2026-09-04 00:56:30 | 27.79271 | -82.96088 | 292° | 71km/h | 28096m | -13.5m/s | -45.8°C | 0% | 0hPa | 0V | 00:00:00 | 00:00:00 | 00:00:00 | |
| ARGUS2 | 2026-09-04 00:56:08 | 27.79323 | -82.95795 | 269° | 108km/h | 28406m | -15.1m/s | -45.8°C | 0% | 0hPa | 0V | 00:00:00 | 00:00:00 | 00:00:00 | |
| ARGUS2 | 2026-09-04 00:55:47 | 27.79325 | -82.95453 | 254° | 95km/h | 28735m | -16.8m/s | -45.5°C | 0% | 0hPa | 0V | 00:00:00 | 00:00:00 | 00:00:00 | |
| ARGUS2 | 2026-09-04 00:55:25 | 27.79325 | -82.95161 | 265° | 89km/h | 29110m | -16.0m/s | -45.3°C | 0% | 0hPa | 0V | 00:00:00 | 00:00:00 | 00:00:00 | |
| ARGUS2 | 2026-09-04 00:55:03 | 27.79287 | -82.94889 | 233° | 68km/h | 29457m | -16.2m/s | -44.1°C | 0% | 0hPa | 0V | 00:00:00 | 00:00:00 | 00:00:00 | |
| ARGUS2 | 2026-09-04 00:54:43 | 27.79262 | -82.94595 | 340° | 15km/h | 29826m | -23.1m/s | -43.5°C | 0% | 0hPa | 0V | 00:00:00 | 00:00:00 | 00:00:00 | |
| ARGUS2 | 2026-09-04 00:54:21 | 27.79239 | -82.94276 | 286° | 82km/h | 30257m | -22.0m/s | -42.7°C | 0% | 0hPa | 0V | 00:00:00 | 00:00:00 | 00:00:00 | |
| ARGUS2 | 2026-09-04 00:54:01 | 27.79120 | -82.94052 | 299° | 40km/h | 30709m | -23.6m/s | -41.6°C | 0% | 0hPa | 0V | 00:00:00 | 00:00:00 | 00:00:00 | |
| ARGUS2 | 2026-09-04 00:53:40 | 27.79066 | -82.93978 | 194° | 68km/h | 31204m | -23.1m/s | -40.4°C | 0% | 0hPa | 0V | 00:00:00 | 00:00:00 | 00:00:00 | |
| ARGUS2 | 2026-09-04 00:52:51 | 27.79612 | -82.93575 | 248° | 71km/h | 32373m | -23.1m/s | -43.5°C | 0% | 0hPa | 0V | 00:00:00 | 00:00:00 | 00:00:00 | |
| ARGUS2 | 2026-09-04 00:52:30 | 27.79735 | -82.93403 | 260° | 68km/h | 32912m | -25.2m/s | -43.2°C | 0% | 0hPa | 0V | 00:00:00 | 00:00:00 | 00:00:00 | |
| ARGUS2 | 2026-09-04 00:52:06 | 27.79750 | -82.93100 | 264° | 38km/h | 33846m | -49.1m/s | -40.7°C | 0% | 0hPa | 0V | 00:00:00 | 00:00:00 | 00:00:00 | |
| ARGUS2 | 2026-09-04 00:51:13 | 27.79795 | -82.92237 | 254° | 108km/h | 34516m | 4.6m/s | -40.9°C | 0% | 0hPa | 0V | 00:00:00 | 00:00:00 | 00:00:00 | |
| ARGUS2 | 2026-09-04 00:50:50 | 27.79806 | -82.91856 | 216° | 27km/h | 34355m | 5.5m/s | -40.9°C | 0% | 0hPa | 0V | 00:00:00 | 00:00:00 | 00:00:00 | |
| ARGUS2 | 2026-09-04 00:50:29 | 27.79880 | -82.91494 | 255° | 115km/h | 34185m | 4.5m/s | -41.0°C | 0% | 0hPa | 0V | 00:00:00 | 00:00:00 | 00:00:00 | |
| ARGUS2 | 2026-09-04 00:50:02 | 27.79951 | -82.91129 | 250° | 104km/h | 33973m | 6.7m/s | -40.7°C | 0% | 0hPa | 0V | 00:00:00 | 00:00:00 | 00:00:00 | |
| ARGUS2 | 2026-09-04 00:49:37 | 27.80025 | -82.90879 | 230° | 71km/h | 33772m | 11.3m/s | -40.4°C | 0% | 0hPa | 0V | 00:00:00 | 00:00:00 | 00:00:00 | |
| ARGUS2 | 2026-09-04 00:49:11 | 27.80092 | -82.90586 | 240° | 64km/h | 33562m | 9.0m/s | -40.4°C | 0% | 0hPa | 0V | 00:00:00 | 00:00:00 | 00:00:00 | |
| ARGUS2 | 2026-09-04 00:48:50 | 27.80090 | -82.90327 | 339° | 24km/h | 33383m | 8.2m/s | -40.5°C | 0% | 0hPa | 0V | 00:00:00 | 00:00:00 | 00:00:00 | |
| ARGUS2 | 2026-09-04 00:48:28 | 27.80113 | -82.90160 | 228° | 58km/h | 33223m | 5.2m/s | -39.8°C | 0% | 0hPa | 0V | 00:00:00 | 00:00:00 | 00:00:00 | |
| ARGUS2 | 2026-09-04 00:48:08 | 27.80122 | -82.89937 | 140° | 22km/h | 33067m | 8.6m/s | -40.0°C | 0% | 0hPa | 0V | 00:00:00 | 00:00:00 | 00:00:00 | |
| ARGUS2 | 2026-09-04 00:47:45 | 27.80202 | -82.89732 | 268° | 82km/h | 32943m | 6.6m/s | -40.4°C | 0% | 0hPa | 0V | 00:00:00 | 00:00:00 | 00:00:00 | |
| ARGUS2 | 2026-09-04 00:47:23 | 27.80199 | -82.89451 | 233° | 24km/h | 32833m | 5.6m/s | -41.4°C | 0% | 0hPa | 0V | 00:00:00 | 00:00:00 | 00:00:00 | |
| ARGUS2 | 2026-09-04 00:47:02 | 27.80313 | -82.89212 | 232° | 84km/h | 32732m | -0.2m/s | -42.2°C | 0% | 0hPa | 0V | 00:00:00 | 00:00:00 | 00:00:00 | |
| ARGUS2 | 2026-09-04 00:46:41 | 27.80453 | -82.89022 | 181° | 16km/h | 32643m | 3.7m/s | -42.5°C | 0% | 0hPa | 0V | 00:00:00 | 00:00:00 | 00:00:00 | |
| ARGUS2 | 2026-09-04 00:46:18 | 27.80583 | -82.88766 | 245° | 91km/h | 32532m | 2.2m/s | -43.9°C | 0% | 0hPa | 0V | 00:00:00 | 00:00:00 | 00:00:00 | |
| ARGUS2 | 2026-09-04 00:45:57 | 27.80721 | -82.88506 | 223° | 58km/h | 32444m | 4.4m/s | -43.9°C | 0% | 0hPa | 0V | 00:00:00 | 00:00:00 | 00:00:00 | |
| ARGUS2 | 2026-09-04 00:45:37 | 27.80901 | -82.88284 | 269° | 33km/h | 32326m | 0.7m/s | -43.8°C | 0% | 0hPa | 0V | 00:00:00 | 00:00:00 | 00:00:00 | |
| ARGUS2 | 2026-09-04 00:45:16 | 27.81150 | -82.88030 | 221° | 93km/h | 32205m | 8.1m/s | -43.8°C | 0% | 0hPa | 0V | 00:00:00 | 00:00:00 | 00:00:00 | |
| ARGUS2 | 2026-09-04 00:44:55 | 27.81417 | -82.87840 | 220° | 49km/h | 32079m | 3.5m/s | -42.9°C | 0% | 0hPa | 0V | 00:00:00 | 00:00:00 | 00:00:00 | |
| ARGUS2 | 2026-09-04 00:44:32 | 27.81641 | -82.87672 | 193° | 80km/h | 31921m | 8.2m/s | -41.8°C | 0% | 0hPa | 0V | 00:00:00 | 00:00:00 | 00:00:00 | |
| ARGUS2 | 2026-09-04 00:44:12 | 27.81857 | -82.87505 | 220° | 9km/h | 31746m | 7.3m/s | -41.2°C | 0% | 0hPa | 0V | 00:00:00 | 00:00:00 | 00:00:00 | |
| ARGUS2 | 2026-09-04 00:43:50 | 27.82003 | -82.87400 | 204° | 49km/h | 31596m | 11.9m/s | -41.4°C | 0% | 0hPa | 0V | 00:00:00 | 00:00:00 | 00:00:00 | |
| ARGUS2 | 2026-09-04 00:43:29 | 27.82156 | -82.87264 | 145° | 13km/h | 31397m | 5.5m/s | -40.3°C | 0% | 0hPa | 0V | 00:00:00 | 00:00:00 | 00:00:00 | |
| ARGUS2 | 2026-09-04 00:43:05 | 27.82240 | -82.87173 | 212° | 57km/h | 31220m | 7.3m/s | -39.5°C | 0% | 0hPa | 0V | 00:00:00 | 00:00:00 | 00:00:00 | |
| ARGUS2 | 2026-09-04 00:42:45 | 27.82270 | -82.87101 | 277° | 24km/h | 31058m | 8.9m/s | -39.4°C | 0% | 0hPa | 0V | 00:00:00 | 00:00:00 | 00:00:00 | |
| ARGUS2 | 2026-09-04 00:42:23 | 27.82241 | -82.87038 | 210° | 18km/h | 30890m | 10.1m/s | -38.8°C | 0% | 0hPa | 0V | 00:00:00 | 00:00:00 | 00:00:00 | |
| ARGUS2 | 2026-09-04 00:42:02 | 27.82132 | -82.86951 | 355° | 62km/h | 30745m | 2.5m/s | -39.8°C | 0% | 0hPa | 0V | 00:00:00 | 00:00:00 | 00:00:00 | |
| ARGUS2 | 2026-09-04 00:41:41 | 27.81979 | -82.86862 | 317° | 13km/h | 30629m | 4.7m/s | -39.6°C | 0% | 0hPa | 0V | 00:00:00 | 00:00:00 | 00:00:00 | |
| ARGUS2 | 2026-09-04 00:41:21 | 27.81818 | -82.86740 | 333° | 66km/h | 30533m | 2.8m/s | -39.5°C | 0% | 0hPa | 0V | 00:00:00 | 00:00:00 | 00:00:00 | |
| ARGUS2 | 2026-09-04 00:41:00 | 27.81669 | -82.86593 | 310° | 49km/h | 30455m | 4.9m/s | -40.0°C | 0% | 0hPa | 0V | 00:00:00 | 00:00:00 | 00:00:00 | |
| ARGUS2 | 2026-09-04 00:40:40 | 27.81596 | -82.86380 | 266° | 35km/h | 30355m | 4.7m/s | -41.1°C | 0% | 0hPa | 0V | 00:00:00 | 00:00:00 | 00:00:00 | |
| ARGUS2 | 2026-09-04 00:40:18 | 27.81608 | -82.86109 | 222° | 51km/h | 30253m | 3.6m/s | -44.3°C | 0% | 0hPa | 0V | 00:00:00 | 00:00:00 | 00:00:00 | |
| ARGUS2 | 2026-09-04 00:39:57 | 27.81758 | -82.85839 | 271° | 44km/h | 30125m | 5.4m/s | -45.0°C | 0% | 0hPa | 0V | 00:00:00 | 00:00:00 | 00:00:00 | |
| ARGUS2 | 2026-09-04 00:39:35 | 27.81873 | -82.85607 | 258° | 62km/h | 29990m | 4.3m/s | -45.2°C | 0% | 0hPa | 0V | 00:00:00 | 00:00:00 | 00:00:00 | |
| ARGUS2 | 2026-09-04 00:39:15 | 27.81931 | -82.85366 | 310° | 47km/h | 29844m | 5.3m/s | -45.2°C | 0% | 0hPa | 0V | 00:00:00 | 00:00:00 | 00:00:00 | |
| ARGUS2 | 2026-09-04 00:38:55 | 27.82012 | -82.85087 | 254° | 53km/h | 29689m | 8.0m/s | -45.2°C | 0% | 0hPa | 0V | 00:00:00 | 00:00:00 | 00:00:00 | |
| ARGUS2 | 2026-09-04 00:38:33 | 27.82147 | -82.84816 | 258° | 47km/h | 29527m | 6.1m/s | -45.8°C | 0% | 0hPa | 0V | 00:00:00 | 00:00:00 | 00:00:00 | |
| ARGUS2 | 2026-09-04 00:38:12 | 27.82218 | -82.84489 | 267° | 60km/h | 29373m | 6.0m/s | -45.5°C | 0% | 0hPa | 0V | 00:00:00 | 00:00:00 | 00:00:00 | |
| ARGUS2 | 2026-09-04 00:37:52 | 27.82272 | -82.84137 | 248° | 57km/h | 29220m | 6.7m/s | -45.5°C | 0% | 0hPa | 0V | 00:00:00 | 00:00:00 | 00:00:00 | |
| ARGUS2 | 2026-09-04 00:37:31 | 27.82344 | -82.83864 | 224° | 46km/h | 29082m | 6.3m/s | -45.5°C | 0% | 0hPa | 0V | 00:00:00 | 00:00:00 | 00:00:00 | |
| ARGUS2 | 2026-09-04 00:37:11 | 27.82372 | -82.83599 | 262° | 60km/h | 28954m | 5.7m/s | -45.7°C | 0% | 0hPa | 0V | 00:00:00 | 00:00:00 | 00:00:00 | |
| ARGUS2 | 2026-09-04 00:36:50 | 27.82386 | -82.83333 | 266° | 47km/h | 28839m | 7.7m/s | -45.7°C | 0% | 0hPa | 0V | 00:00:00 | 00:00:00 | 00:00:00 | |
| ARGUS2 | 2026-09-04 00:36:30 | 27.82405 | -82.82995 | 262° | 57km/h | 28719m | 3.7m/s | -44.8°C | 0% | 0hPa | 0V | 00:00:00 | 00:00:00 | 00:00:00 | |
| ARGUS2 | 2026-09-04 00:36:09 | 27.82397 | -82.82652 | 269° | 66km/h | 28601m | 6.8m/s | -45.5°C | 0% | 0hPa | 0V | 00:00:00 | 00:00:00 | 00:00:00 | |
| ARGUS2 | 2026-09-04 00:35:49 | 27.82396 | -82.82240 | 272° | 84km/h | 28480m | 7.9m/s | -45.7°C | 0% | 0hPa | 0V | 00:00:00 | 00:00:00 | 00:00:00 | |
| ARGUS2 | 2026-09-04 00:35:29 | 27.82449 | -82.81853 | 264° | 64km/h | 28360m | 4.2m/s | -46.1°C | 0% | 0hPa | 0V | 00:00:00 | 00:00:00 | 00:00:00 | |
| ARGUS2 | 2026-09-04 00:35:08 | 27.82503 | -82.81515 | 249° | 37km/h | 28229m | 5.6m/s | -46.0°C | 0% | 0hPa | 0V | 00:00:00 | 00:00:00 | 00:00:00 | |
| ARGUS2 | 2026-09-04 00:34:47 | 27.82562 | -82.81231 | 264° | 46km/h | 28098m | 5.2m/s | -46.7°C | 0% | 0hPa | 0V | 00:00:00 | 00:00:00 | 00:00:00 | |
| ARGUS2 | 2026-09-04 00:34:26 | 27.82575 | -82.80954 | 273° | 51km/h | 27969m | 8.4m/s | -46.5°C | 0% | 0hPa | 0V | 00:00:00 | 00:00:00 | 00:00:00 | |
| ARGUS2 | 2026-09-04 00:34:05 | 27.82577 | -82.80643 | 276° | 77km/h | 27831m | 7.6m/s | -45.8°C | 0% | 0hPa | 0V | 00:00:00 | 00:00:00 | 00:00:00 | |
| ARGUS2 | 2026-09-04 00:33:45 | 27.82587 | -82.80303 | 272° | 73km/h | 27708m | 4.4m/s | -45.5°C | 0% | 0hPa | 0V | 00:00:00 | 00:00:00 | 00:00:00 | |
| ARGUS2 | 2026-09-04 00:33:25 | 27.82609 | -82.79929 | 249° | 40km/h | 27585m | 0.8m/s | -45.5°C | 0% | 0hPa | 0V | 00:00:00 | 00:00:00 | 00:00:00 | |
| ARGUS2 | 2026-09-04 00:33:03 | 27.82620 | -82.79571 | 235° | 40km/h | 27473m | 8.9m/s | -45.6°C | 0% | 0hPa | 0V | 00:00:00 | 00:00:00 | 00:00:00 | |
| ARGUS2 | 2026-09-04 00:32:39 | 27.82633 | -82.79231 | 264° | 49km/h | 27346m | 3.3m/s | -45.4°C | 0% | 0hPa | 0V | 00:00:00 | 00:00:00 | 00:00:00 | |
| ARGUS2 | 2026-09-04 00:32:18 | 27.82625 | -82.78936 | 268° | 44km/h | 27236m | 4.3m/s | -46.3°C | 0% | 0hPa | 0V | 00:00:00 | 00:00:00 | 00:00:00 | |
| ARGUS2 | 2026-09-04 00:31:57 | 27.82605 | -82.78677 | 290° | 62km/h | 27131m | 5.7m/s | -46.8°C | 0% | 0hPa | 0V | 00:00:00 | 00:00:00 | 00:00:00 | |
| ARGUS2 | 2026-09-04 00:31:37 | 27.82523 | -82.78419 | 268° | 60km/h | 27021m | 6.2m/s | -47.7°C | 0% | 0hPa | 0V | 00:00:00 | 00:00:00 | 00:00:00 | |
| ARGUS2 | 2026-09-04 00:31:17 | 27.82442 | -82.78123 | 284° | 69km/h | 26909m | 4.4m/s | -48.3°C | 0% | 0hPa | 0V | 00:00:00 | 00:00:00 | 00:00:00 | |
| ARGUS2 | 2026-09-04 00:30:56 | 27.82373 | -82.77776 | 272° | 53km/h | 26775m | 6.5m/s | -48.3°C | 0% | 0hPa | 0V | 00:00:00 | 00:00:00 | 00:00:00 | |
| ARGUS2 | 2026-09-04 00:30:35 | 27.82338 | -82.77415 | 278° | 46km/h | 26629m | 4.8m/s | -48.4°C | 0% | 0hPa | 0V | 00:00:00 | 00:00:00 | 00:00:00 | |
| ARGUS2 | 2026-09-04 00:30:13 | 27.82281 | -82.76995 | 258° | 75km/h | 26477m | 6.8m/s | -49.5°C | 0% | 0hPa | 0V | 00:00:00 | 00:00:00 | 00:00:00 | |
| ARGUS2 | 2026-09-04 00:29:53 | 27.82270 | -82.76607 | 303° | 75km/h | 26319m | 6.5m/s | -50.4°C | 0% | 0hPa | 0V | 00:00:00 | 00:00:00 | 00:00:00 | |
| ARGUS2 | 2026-09-04 00:29:11 | 27.82223 | -82.75990 | 284° | 44km/h | 26041m | 6.1m/s | -52.5°C | 0% | 0hPa | 0V | 00:00:00 | 00:00:00 | 00:00:00 | |
| ARGUS2 | 2026-09-04 00:28:51 | 27.82186 | -82.75724 | 272° | 68km/h | 25919m | 4.3m/s | -52.6°C | 0% | 0hPa | 0V | 00:00:00 | 00:00:00 | 00:00:00 | |
| ARGUS2 | 2026-09-04 00:28:30 | 27.82141 | -82.75471 | 296° | 82km/h | 25807m | 2.5m/s | -53.0°C | 0% | 0hPa | 0V | 00:00:00 | 00:00:00 | 00:00:00 | |
| ARGUS2 | 2026-09-04 00:28:08 | 27.82038 | -82.75173 | 295° | 40km/h | 25686m | 6.6m/s | -53.1°C | 0% | 0hPa | 0V | 00:00:00 | 00:00:00 | 00:00:00 | |
| ARGUS2 | 2026-09-04 00:27:47 | 27.81949 | -82.74901 | 285° | 46km/h | 25576m | 7.9m/s | -52.5°C | 0% | 0hPa | 0V | 00:00:00 | 00:00:00 | 00:00:00 | |
| ARGUS2 | 2026-09-04 00:27:06 | 27.81775 | -82.74318 | 321° | 38km/h | 25334m | 6.1m/s | -52.8°C | 0% | 0hPa | 0V | 00:00:00 | 00:00:00 | 00:00:00 | |
| ARGUS2 | 2026-09-04 00:26:45 | 27.81679 | -82.74117 | 292° | 49km/h | 25220m | 5.8m/s | -53.0°C | 0% | 0hPa | 0V | 00:00:00 | 00:00:00 | 00:00:00 | |
| ARGUS2 | 2026-09-04 00:26:25 | 27.81608 | -82.73860 | 276° | 47km/h | 25099m | 6.8m/s | -53.3°C | 0% | 0hPa | 0V | 00:00:00 | 00:00:00 | 00:00:00 | |
| ARGUS2 | 2026-09-04 00:26:04 | 27.81556 | -82.73595 | 289° | 44km/h | 24980m | 5.0m/s | -53.5°C | 0% | 0hPa | 0V | 00:00:00 | 00:00:00 | 00:00:00 | |
| ARGUS2 | 2026-09-04 00:25:43 | 27.81475 | -82.73338 | 291° | 69km/h | 24853m | 3.3m/s | -54.1°C | 0% | 0hPa | 0V | 00:00:00 | 00:00:00 | 00:00:00 | |
| ARGUS2 | 2026-09-04 00:25:22 | 27.81394 | -82.73090 | 282° | 49km/h | 24730m | 5.5m/s | -54.6°C | 0% | 0hPa | 0V | 00:00:00 | 00:00:00 | 00:00:00 | |
| ARGUS2 | 2026-09-04 00:25:02 | 27.81336 | -82.72753 | 285° | 69km/h | 24603m | 4.3m/s | -54.7°C | 0% | 0hPa | 0V | 00:00:00 | 00:00:00 | 00:00:00 | |
| ARGUS2 | 2026-09-04 00:24:41 | 27.81272 | -82.72375 | 279° | 60km/h | 24487m | 5.7m/s | -54.7°C | 0% | 0hPa | 0V | 00:00:00 | 00:00:00 | 00:00:00 | |
| ARGUS2 | 2026-09-04 00:24:20 | 27.81223 | -82.72034 | 260° | 42km/h | 24369m | 4.0m/s | -54.1°C | 0% | 0hPa | 0V | 00:00:00 | 00:00:00 | 00:00:00 | |
| ARGUS2 | 2026-09-04 00:23:59 | 27.81208 | -82.71753 | 296° | 40km/h | 24264m | 7.0m/s | -53.6°C | 0% | 0hPa | 0V | 00:00:00 | 00:00:00 | 00:00:00 | |
| ARGUS2 | 2026-09-04 00:23:39 | 27.81172 | -82.71490 | 275° | 46km/h | 24148m | 4.8m/s | -54.0°C | 0% | 0hPa | 0V | 00:00:00 | 00:00:00 | 00:00:00 | |
| ARGUS2 | 2026-09-04 00:23:19 | 27.81174 | -82.71240 | 289° | 60km/h | 24040m | 7.6m/s | -55.1°C | 0% | 0hPa | 0V | 00:00:00 | 00:00:00 | 00:00:00 | |
| ARGUS2 | 2026-09-04 00:22:58 | 27.81153 | -82.70933 | 290° | 69km/h | 23924m | 5.6m/s | -55.5°C | 0% | 0hPa | 0V | 00:00:00 | 00:00:00 | 00:00:00 | |
| ARGUS2 | 2026-09-04 00:22:37 | 27.81116 | -82.70611 | 278° | 53km/h | 23809m | 6.3m/s | -55.6°C | 0% | 0hPa | 0V | 00:00:00 | 00:00:00 | 00:00:00 | |
| ARGUS2 | 2026-09-04 00:22:17 | 27.81124 | -82.70259 | 260° | 77km/h | 23689m | 4.9m/s | -55.1°C | 0% | 0hPa | 0V | 00:00:00 | 00:00:00 | 00:00:00 | |
| ARGUS2 | 2026-09-04 00:21:56 | 27.81156 | -82.69888 | 259° | 73km/h | 23574m | 6.8m/s | -55.3°C | 0% | 0hPa | 0V | 00:00:00 | 00:00:00 | 00:00:00 | |
| ARGUS2 | 2026-09-04 00:21:36 | 27.81139 | -82.69499 | 269° | 62km/h | 23451m | 6.6m/s | -55.7°C | 0% | 0hPa | 0V | 00:00:00 | 00:00:00 | 00:00:00 | |
| ARGUS2 | 2026-09-04 00:21:15 | 27.81088 | -82.69160 | 284° | 38km/h | 23335m | 6.7m/s | -55.5°C | 0% | 0hPa | 0V | 00:00:00 | 00:00:00 | 00:00:00 | |
| ARGUS2 | 2026-09-04 00:20:55 | 27.81044 | -82.68831 | 268° | 49km/h | 23216m | 6.0m/s | -55.7°C | 0% | 0hPa | 0V | 00:00:00 | 00:00:00 | 00:00:00 | |
| ARGUS2 | 2026-09-04 00:20:34 | 27.81043 | -82.68563 | 270° | 53km/h | 23110m | 6.5m/s | -55.7°C | 0% | 0hPa | 0V | 00:00:00 | 00:00:00 | 00:00:00 | |
| ARGUS2 | 2026-09-04 00:20:14 | 27.81058 | -82.68304 | 241° | 29km/h | 23007m | 3.4m/s | -55.8°C | 0% | 0hPa | 0V | 00:00:00 | 00:00:00 | 00:00:00 | |
| ARGUS2 | 2026-09-04 00:19:53 | 27.81073 | -82.68057 | 288° | 37km/h | 22912m | 5.6m/s | -55.8°C | 0% | 0hPa | 0V | 00:00:00 | 00:00:00 | 00:00:00 | |
| ARGUS2 | 2026-09-04 00:19:33 | 27.81100 | -82.67775 | 284° | 62km/h | 22823m | 4.3m/s | -56.7°C | 0% | 0hPa | 0V | 00:00:00 | 00:00:00 | 00:00:00 | |
| ARGUS2 | 2026-09-04 00:19:11 | 27.81094 | -82.67418 | 250° | 60km/h | 22734m | 4.2m/s | -57.5°C | 0% | 0hPa | 0V | 00:00:00 | 00:00:00 | 00:00:00 | |
| ARGUS2 | 2026-09-04 00:18:51 | 27.81111 | -82.67032 | 257° | 66km/h | 22648m | 3.8m/s | -57.5°C | 0% | 0hPa | 0V | 00:00:00 | 00:00:00 | 00:00:00 | |
| ARGUS2 | 2026-09-04 00:18:31 | 27.81131 | -82.66695 | 281° | 66km/h | 22544m | 4.9m/s | -57.5°C | 0% | 0hPa | 0V | 00:00:00 | 00:00:00 | 00:00:00 | |
| ARGUS2 | 2026-09-04 00:18:10 | 27.81169 | -82.66320 | 259° | 91km/h | 22441m | 4.4m/s | -57.3°C | 0% | 0hPa | 0V | 00:00:00 | 00:00:00 | 00:00:00 | |
| ARGUS2 | 2026-09-04 00:17:50 | 27.81255 | -82.65964 | 252° | 66km/h | 22325m | 6.8m/s | -57.1°C | 0% | 0hPa | 0V | 00:00:00 | 00:00:00 | 00:00:00 | |
| ARGUS2 | 2026-09-04 00:17:29 | 27.81374 | -82.65680 | 250° | 51km/h | 22214m | 6.6m/s | -56.4°C | 0% | 0hPa | 0V | 00:00:00 | 00:00:00 | 00:00:00 | |
| ARGUS2 | 2026-09-04 00:17:09 | 27.81508 | -82.65430 | 248° | 46km/h | 22102m | 5.2m/s | -57.1°C | 0% | 0hPa | 0V | 00:00:00 | 00:00:00 | 00:00:00 | |
| ARGUS2 | 2026-09-04 00:16:48 | 27.81608 | -82.65234 | 265° | 57km/h | 21997m | 4.3m/s | -57.4°C | 0% | 0hPa | 0V | 00:00:00 | 00:00:00 | 00:00:00 | |
| ARGUS2 | 2026-09-04 00:16:28 | 27.81654 | -82.65060 | 273° | 35km/h | 21886m | 5.5m/s | -58.3°C | 0% | 0hPa | 0V | 00:00:00 | 00:00:00 | 00:00:00 | |
| ARGUS2 | 2026-09-04 00:16:08 | 27.81646 | -82.64892 | 283° | 42km/h | 21791m | 5.9m/s | -58.1°C | 0% | 0hPa | 0V | 00:00:00 | 00:00:00 | 00:00:00 | |
| ARGUS2 | 2026-09-04 00:15:47 | 27.81681 | -82.64668 | 269° | 49km/h | 21695m | 4.3m/s | -58.1°C | 0% | 0hPa | 0V | 00:00:00 | 00:00:00 | 00:00:00 | |
| ARGUS2 | 2026-09-04 00:15:26 | 27.81742 | -82.64427 | 255° | 31km/h | 21603m | 5.2m/s | -59.5°C | 0% | 0hPa | 0V | 00:00:00 | 00:00:00 | 00:00:00 | |
| ARGUS2 | 2026-09-04 00:15:05 | 27.81781 | -82.64258 | 286° | 24km/h | 21515m | 7.2m/s | -60.6°C | 0% | 0hPa | 0V | 00:00:00 | 00:00:00 | 00:00:00 | |
| ARGUS2 | 2026-09-04 00:14:44 | 27.81790 | -82.64142 | 262° | 16km/h | 21419m | 1.4m/s | -60.8°C | 0% | 0hPa | 0V | 00:00:00 | 00:00:00 | 00:00:00 | |
| ARGUS2 | 2026-09-04 00:14:24 | 27.81816 | -82.63990 | 249° | 31km/h | 21326m | 5.3m/s | -60.7°C | 0% | 0hPa | 0V | 00:00:00 | 00:00:00 | 00:00:00 | |
| ARGUS2 | 2026-09-04 00:14:03 | 27.81843 | -82.63786 | 296° | 33km/h | 21227m | 3.7m/s | -61.9°C | 0% | 0hPa | 0V | 00:00:00 | 00:00:00 | 00:00:00 | |
| ARGUS2 | 2026-09-04 00:13:43 | 27.81830 | -82.63594 | 274° | 33km/h | 21128m | 5.7m/s | -61.7°C | 0% | 0hPa | 0V | 00:00:00 | 00:00:00 | 00:00:00 | |
| ARGUS2 | 2026-09-04 00:13:22 | 27.81797 | -82.63434 | 272° | 40km/h | 21019m | 5.1m/s | -61.5°C | 0% | 0hPa | 0V | 00:00:00 | 00:00:00 | 00:00:00 | |
| ARGUS2 | 2026-09-04 00:13:03 | 27.81793 | -82.63260 | 269° | 57km/h | 20910m | 5.7m/s | -60.8°C | 0% | 0hPa | 0V | 00:00:00 | 00:00:00 | 00:00:00 | |
| ARGUS2 | 2026-09-04 00:12:42 | 27.81808 | -82.63026 | 249° | 38km/h | 20793m | 5.4m/s | -60.5°C | 0% | 0hPa | 0V | 00:00:00 | 00:00:00 | 00:00:00 | |
| ARGUS2 | 2026-09-04 00:12:21 | 27.81880 | -82.62842 | 210° | 35km/h | 20673m | 6.1m/s | -60.7°C | 0% | 0hPa | 0V | 00:00:00 | 00:00:00 | 00:00:00 | |
| ARGUS2 | 2026-09-04 00:12:01 | 27.81957 | -82.62649 | 253° | 20km/h | 20549m | 4.7m/s | -61.1°C | 0% | 0hPa | 0V | 00:00:00 | 00:00:00 | 00:00:00 | |
| ARGUS2 | 2026-09-04 00:11:40 | 27.82003 | -82.62445 | 263° | 38km/h | 20446m | 6.7m/s | -60.9°C | 0% | 0hPa | 0V | 00:00:00 | 00:00:00 | 00:00:00 | |
| ARGUS2 | 2026-09-04 00:11:20 | 27.82025 | -82.62247 | 276° | 22km/h | 20346m | 4.3m/s | -61.4°C | 0% | 0hPa | 0V | 00:00:00 | 00:00:00 | 00:00:00 | |
| ARGUS2 | 2026-09-04 00:10:59 | 27.81990 | -82.62048 | 272° | 47km/h | 20251m | 4.5m/s | -61.5°C | 0% | 0hPa | 0V | 00:00:00 | 00:00:00 | 00:00:00 | |
| ARGUS2 | 2026-09-04 00:10:39 | 27.81912 | -82.61825 | 284° | 40km/h | 20153m | 5.7m/s | -61.9°C | 0% | 0hPa | 0V | 00:00:00 | 00:00:00 | 00:00:00 | |
| ARGUS2 | 2026-09-04 00:10:18 | 27.81879 | -82.61621 | 284° | 31km/h | 20047m | 5.3m/s | -62.3°C | 0% | 0hPa | 0V | 00:00:00 | 00:00:00 | 00:00:00 | |
| ARGUS2 | 2026-09-04 00:09:57 | 27.81822 | -82.61445 | 294° | 31km/h | 19935m | 7.0m/s | -62.5°C | 0% | 0hPa | 0V | 00:00:00 | 00:00:00 | 00:00:00 | |
| ARGUS2 | 2026-09-04 00:09:37 | 27.81788 | -82.61236 | 283° | 20km/h | 19809m | 5.8m/s | -62.9°C | 0% | 0hPa | 0V | 00:00:00 | 00:00:00 | 00:00:00 | |
| ARGUS2 | 2026-09-04 00:09:17 | 27.81821 | -82.61063 | 224° | 31km/h | 19692m | 5.7m/s | -62.9°C | 0% | 0hPa | 0V | 00:00:00 | 00:00:00 | 00:00:00 | |
| ARGUS2 | 2026-09-04 00:08:55 | 27.81902 | -82.60900 | 264° | 38km/h | 19569m | 5.2m/s | -63.2°C | 0% | 0hPa | 0V | 00:00:00 | 00:00:00 | 00:00:00 | |
| ARGUS2 | 2026-09-04 00:08:35 | 27.81971 | -82.60782 | 235° | 31km/h | 19453m | 4.9m/s | -64.0°C | 0% | 0hPa | 0V | 00:00:00 | 00:00:00 | 00:00:00 | |
| ARGUS2 | 2026-09-04 00:08:15 | 27.82038 | -82.60736 | 154° | 18km/h | 19338m | 3.7m/s | -63.9°C | 0% | 0hPa | 0V | 00:00:00 | 00:00:00 | 00:00:00 | |
| ARGUS2 | 2026-09-04 00:07:54 | 27.82069 | -82.60706 | 271° | 15km/h | 19242m | 4.2m/s | -63.7°C | 0% | 0hPa | 0V | 00:00:00 | 00:00:00 | 00:00:00 | |
| ARGUS2 | 2026-09-04 00:07:34 | 27.82075 | -82.60644 | 350° | 7km/h | 19137m | 5.6m/s | -63.5°C | 0% | 0hPa | 0V | 00:00:00 | 00:00:00 | 00:00:00 | |
| ARGUS2 | 2026-09-04 00:07:13 | 27.82091 | -82.60583 | 236° | 20km/h | 19046m | 4.9m/s | -63.3°C | 0% | 0hPa | 0V | 00:00:00 | 00:00:00 | 00:00:00 | |
| ARGUS2 | 2026-09-04 00:06:53 | 27.82132 | -82.60451 | 228° | 35km/h | 18941m | 5.2m/s | -62.7°C | 0% | 0hPa | 0V | 00:00:00 | 00:00:00 | 00:00:00 | |
| ARGUS2 | 2026-09-04 00:06:32 | 27.82188 | -82.60288 | 257° | 49km/h | 18858m | 2.2m/s | -63.5°C | 0% | 0hPa | 0V | 00:00:00 | 00:00:00 | 00:00:00 | |
| ARGUS2 | 2026-09-04 00:06:12 | 27.82298 | -82.60085 | 223° | 38km/h | 18766m | 4.5m/s | -64.3°C | 0% | 0hPa | 0V | 00:00:00 | 00:00:00 | 00:00:00 | |
| ARGUS2 | 2026-09-04 00:05:51 | 27.82392 | -82.59935 | 206° | 26km/h | 18673m | 4.7m/s | -65.4°C | 0% | 0hPa | 0V | 00:00:00 | 00:00:00 | 00:00:00 | |
| ARGUS2 | 2026-09-04 00:05:31 | 27.82423 | -82.59823 | 305° | 18km/h | 18576m | 5.5m/s | -67.7°C | 0% | 0hPa | 0V | 00:00:00 | 00:00:00 | 00:00:00 | |
| ARGUS2 | 2026-09-04 00:05:09 | 27.82391 | -82.59755 | 278° | 13km/h | 18456m | 5.9m/s | -68.6°C | 0% | 0hPa | 0V | 00:00:00 | 00:00:00 | 00:00:00 | |
| ARGUS2 | 2026-09-04 00:04:49 | 27.82288 | -82.59718 | 6° | 20km/h | 18341m | 5.3m/s | -68.2°C | 0% | 0hPa | 0V | 00:00:00 | 00:00:00 | 00:00:00 | |
| ARGUS2 | 2026-09-04 00:04:28 | 27.82151 | -82.59636 | 306° | 33km/h | 18217m | 4.9m/s | -68.3°C | 0% | 0hPa | 0V | 00:00:00 | 00:00:00 | 00:00:00 | |
| ARGUS2 | 2026-09-04 00:04:10 | 27.82070 | -82.59527 | 252° | 18km/h | 18113m | 5.2m/s | -68.4°C | 0% | 0hPa | 0V | 00:00:00 | 00:00:00 | 00:00:00 | |
| ARGUS2 | 2026-09-04 00:03:48 | 27.82063 | -82.59410 | 286° | 24km/h | 18007m | 3.6m/s | -69.3°C | 0% | 0hPa | 0V | 00:00:00 | 00:00:00 | 00:00:00 | |
| ARGUS2 | 2026-09-04 00:03:28 | 27.82073 | -82.59338 | 257° | 11km/h | 17917m | 5.1m/s | -69.9°C | 0% | 0hPa | 0V | 00:00:00 | 00:00:00 | 00:00:00 | |
| ARGUS2 | 2026-09-04 00:03:08 | 27.82073 | -82.59267 | 295° | 18km/h | 17823m | 4.5m/s | -69.9°C | 0% | 0hPa | 0V | 00:00:00 | 00:00:00 | 00:00:00 | |
| ARGUS2 | 2026-09-04 00:02:25 | 27.82112 | -82.59010 | 247° | 33km/h | 17529m | 4.8m/s | -69.7°C | 0% | 0hPa | 0V | 00:00:00 | 00:00:00 | 00:00:00 | |
| ARGUS2 | 2026-09-04 00:01:57 | 27.82179 | -82.58883 | 242° | 40km/h | 17419m | 3.9m/s | -69.2°C | 0% | 0hPa | 0V | 00:00:00 | 00:00:00 | 00:00:00 | |
| ARGUS2 | 2026-09-04 00:01:29 | 27.82258 | -82.58742 | 231° | 37km/h | 17309m | 5.8m/s | -68.5°C | 0% | 0hPa | 0V | 00:00:00 | 00:00:00 | 00:00:00 | |
| ARGUS2 | 2026-09-04 00:00:44 | 27.82478 | -82.58444 | 218° | 40km/h | 17090m | 5.5m/s | -67.7°C | 0% | 0hPa | 0V | 00:00:00 | 00:00:00 | 00:00:00 | |
| ARGUS2 | 2026-09-04 00:00:26 | 27.82583 | -82.58295 | 261° | 35km/h | 16974m | 5.8m/s | -67.5°C | 0% | 0hPa | 0V | 00:00:00 | 00:00:00 | 00:00:00 | |
| ARGUS2 | 2026-09-03 23:59:42 | 27.82746 | -82.57879 | 238° | 42km/h | 16750m | 5.1m/s | -68.2°C | 0% | 0hPa | 0V | 00:00:00 | 00:00:00 | 00:00:00 | |
| ARGUS2 | 2026-09-03 23:59:20 | 27.82830 | -82.57654 | 255° | 29km/h | 16634m | 5.7m/s | -68.9°C | 0% | 0hPa | 0V | 00:00:00 | 00:00:00 | 00:00:00 | |
| ARGUS2 | 2026-09-03 23:59:00 | 27.82846 | -82.57465 | 292° | 37km/h | 16529m | 4.9m/s | -69.7°C | 0% | 0hPa | 0V | 00:00:00 | 00:00:00 | 00:00:00 | |
| ARGUS2 | 2026-09-03 23:58:40 | 27.82823 | -82.57286 | 291° | 29km/h | 16428m | 5.6m/s | -69.4°C | 0% | 0hPa | 0V | 00:00:00 | 00:00:00 | 00:00:00 | |
| ARGUS2 | 2026-09-03 23:58:19 | 27.82766 | -82.57153 | 293° | 38km/h | 16334m | 3.9m/s | -69.1°C | 0% | 0hPa | 0V | 00:00:00 | 00:00:00 | 00:00:00 | |
| ARGUS2 | 2026-09-03 23:57:58 | 27.82685 | -82.56998 | 283° | 42km/h | 16241m | 4.1m/s | -68.7°C | 0% | 0hPa | 0V | 00:00:00 | 00:00:00 | 00:00:00 | |
| ARGUS2 | 2026-09-03 23:57:38 | 27.82613 | -82.56862 | 301° | 29km/h | 16149m | 4.9m/s | -68.1°C | 0% | 0hPa | 0V | 00:00:00 | 00:00:00 | 00:00:00 | |
| ARGUS2 | 2026-09-03 23:57:18 | 27.82557 | -82.56686 | 286° | 31km/h | 16048m | 4.9m/s | -67.6°C | 0% | 0hPa | 0V | 00:00:00 | 00:00:00 | 00:00:00 | |
| ARGUS2 | 2026-09-03 23:56:57 | 27.82479 | -82.56516 | 312° | 47km/h | 15947m | 6.1m/s | -67.9°C | 0% | 0hPa | 0V | 00:00:00 | 00:00:00 | 00:00:00 | |
| ARGUS2 | 2026-09-03 23:56:37 | 27.82371 | -82.56323 | 285° | 35km/h | 15837m | 6.4m/s | -67.3°C | 0% | 0hPa | 0V | 00:00:00 | 00:00:00 | 00:00:00 | |
| ARGUS2 | 2026-09-03 23:56:16 | 27.82301 | -82.56071 | 280° | 53km/h | 15726m | 5.7m/s | -67.1°C | 0% | 0hPa | 0V | 00:00:00 | 00:00:00 | 00:00:00 | |
| ARGUS2 | 2026-09-03 23:55:56 | 27.82234 | -82.55783 | 283° | 51km/h | 15624m | 5.8m/s | -66.8°C | 0% | 0hPa | 0V | 00:00:00 | 00:00:00 | 00:00:00 | |
| ARGUS2 | 2026-09-03 23:55:35 | 27.82203 | -82.55485 | 273° | 51km/h | 15530m | 4.6m/s | -66.3°C | 0% | 0hPa | 0V | 00:00:00 | 00:00:00 | 00:00:00 | |
| ARGUS2 | 2026-09-03 23:55:15 | 27.82201 | -82.55160 | 293° | 42km/h | 15430m | 6.2m/s | -66.5°C | 0% | 0hPa | 0V | 00:00:00 | 00:00:00 | 00:00:00 | |
| ARGUS2 | 2026-09-03 23:54:54 | 27.82191 | -82.54909 | 271° | 40km/h | 15335m | 4.9m/s | -67.3°C | 0% | 0hPa | 0V | 00:00:00 | 00:00:00 | 00:00:00 | |
| ARGUS2 | 2026-09-03 23:54:34 | 27.82179 | -82.54720 | 289° | 51km/h | 15229m | 7.5m/s | -69.5°C | 0% | 0hPa | 0V | 00:00:00 | 00:00:00 | 00:00:00 | |
| ARGUS2 | 2026-09-03 23:54:12 | 27.82157 | -82.54514 | 281° | 37km/h | 15084m | 8.6m/s | -68.8°C | 0% | 0hPa | 0V | 00:00:00 | 00:00:00 | 00:00:00 | |
| ARGUS2 | 2026-09-03 23:53:52 | 27.82024 | -82.54340 | 324° | 44km/h | 14969m | 5.0m/s | -68.6°C | 0% | 0hPa | 0V | 00:00:00 | 00:00:00 | 00:00:00 | |
| ARGUS2 | 2026-09-03 23:53:32 | 27.81883 | -82.54146 | 308° | 42km/h | 14861m | 4.7m/s | -68.5°C | 0% | 0hPa | 0V | 00:00:00 | 00:00:00 | 00:00:00 | |
| ARGUS2 | 2026-09-03 23:53:11 | 27.81733 | -82.53940 | 306° | 49km/h | 14757m | 7.0m/s | -68.3°C | 0% | 0hPa | 0V | 00:00:00 | 00:00:00 | 00:00:00 | |
| ARGUS2 | 2026-09-03 23:52:50 | 27.81570 | -82.53719 | 310° | 57km/h | 14651m | 5.9m/s | -68.0°C | 0% | 0hPa | 0V | 00:00:00 | 00:00:00 | 00:00:00 | |
| ARGUS2 | 2026-09-03 23:52:30 | 27.81421 | -82.53493 | 311° | 44km/h | 14558m | 5.6m/s | -67.3°C | 0% | 0hPa | 0V | 00:00:00 | 00:00:00 | 00:00:00 | |
| ARGUS2 | 2026-09-03 23:52:10 | 27.81279 | -82.53251 | 288° | 44km/h | 14463m | 5.0m/s | -66.7°C | 0% | 0hPa | 0V | 00:00:00 | 00:00:00 | 00:00:00 | |
| ARGUS2 | 2026-09-03 23:51:49 | 27.81180 | -82.53036 | 291° | 38km/h | 14376m | 4.3m/s | -66.4°C | 0% | 0hPa | 0V | 00:00:00 | 00:00:00 | 00:00:00 | |
| ARGUS2 | 2026-09-03 23:51:28 | 27.81105 | -82.52822 | 281° | 38km/h | 14290m | 4.5m/s | -65.9°C | 0% | 0hPa | 0V | 00:00:00 | 00:00:00 | 00:00:00 | |
| ARGUS2 | 2026-09-03 23:51:08 | 27.81047 | -82.52614 | 288° | 37km/h | 14202m | 4.5m/s | -65.4°C | 0% | 0hPa | 0V | 00:00:00 | 00:00:00 | 00:00:00 | |
| ARGUS2 | 2026-09-03 23:50:48 | 27.80995 | -82.52375 | 276° | 40km/h | 14109m | 3.3m/s | -64.8°C | 0% | 0hPa | 0V | 00:00:00 | 00:00:00 | 00:00:00 | |
| ARGUS2 | 2026-09-03 23:50:27 | 27.80948 | -82.52123 | 282° | 49km/h | 14015m | 6.3m/s | -64.0°C | 0% | 0hPa | 0V | 00:00:00 | 00:00:00 | 00:00:00 | |
| ARGUS2 | 2026-09-03 23:50:07 | 27.80897 | -82.51870 | 281° | 46km/h | 13914m | 6.6m/s | -63.2°C | 0% | 0hPa | 0V | 00:00:00 | 00:00:00 | 00:00:00 | |
| ARGUS2 | 2026-09-03 23:49:46 | 27.80868 | -82.51605 | 285° | 49km/h | 13817m | 4.8m/s | -62.4°C | 0% | 0hPa | 0V | 00:00:00 | 00:00:00 | 00:00:00 | |
| ARGUS2 | 2026-09-03 23:49:26 | 27.80834 | -82.51315 | 271° | 57km/h | 13717m | 4.7m/s | -61.8°C | 0% | 0hPa | 0V | 00:00:00 | 00:00:00 | 00:00:00 | |
| ARGUS2 | 2026-09-03 23:49:04 | 27.80817 | -82.51031 | 269° | 49km/h | 13612m | 5.4m/s | -60.9°C | 0% | 0hPa | 0V | 00:00:00 | 00:00:00 | 00:00:00 | |
| ARGUS2 | 2026-09-03 23:48:44 | 27.80798 | -82.50760 | 282° | 40km/h | 13514m | 3.7m/s | -60.0°C | 0% | 0hPa | 0V | 00:00:00 | 00:00:00 | 00:00:00 | |
| ARGUS2 | 2026-09-03 23:48:23 | 27.80791 | -82.50475 | 281° | 46km/h | 13407m | 5.4m/s | -59.1°C | 0% | 0hPa | 0V | 00:00:00 | 00:00:00 | 00:00:00 | |
| ARGUS2 | 2026-09-03 23:48:03 | 27.80787 | -82.50201 | 259° | 38km/h | 13303m | 4.5m/s | -58.2°C | 0% | 0hPa | 0V | 00:00:00 | 00:00:00 | 00:00:00 | |
| ARGUS2 | 2026-09-03 23:47:43 | 27.80787 | -82.49893 | 258° | 64km/h | 13198m | 6.1m/s | -57.4°C | 0% | 0hPa | 0V | 00:00:00 | 00:00:00 | 00:00:00 | |
| ARGUS2 | 2026-09-03 23:47:22 | 27.80794 | -82.49578 | 282° | 60km/h | 13097m | 5.2m/s | -56.6°C | 0% | 0hPa | 0V | 00:00:00 | 00:00:00 | 00:00:00 | |
| ARGUS2 | 2026-09-03 23:46:41 | 27.80788 | -82.48942 | 282° | 47km/h | 12879m | 5.1m/s | -54.7°C | 0% | 0hPa | 0V | 00:00:00 | 00:00:00 | 00:00:00 | |
| ARGUS2 | 2026-09-03 23:46:21 | 27.80782 | -82.48632 | 272° | 46km/h | 12766m | 5.4m/s | -53.8°C | 0% | 0hPa | 0V | 00:00:00 | 00:00:00 | 00:00:00 | |
| ARGUS2 | 2026-09-03 23:46:00 | 27.80749 | -82.48354 | 281° | 51km/h | 12663m | 5.5m/s | -53.0°C | 0% | 0hPa | 0V | 00:00:00 | 00:00:00 | 00:00:00 | |
| ARGUS2 | 2026-09-03 23:45:40 | 27.80721 | -82.48087 | 281° | 53km/h | 12549m | 6.3m/s | -52.1°C | 0% | 0hPa | 0V | 00:00:00 | 00:00:00 | 00:00:00 | |
| ARGUS2 | 2026-09-03 23:45:19 | 27.80655 | -82.47803 | 294° | 62km/h | 12433m | 6.2m/s | -51.1°C | 0% | 0hPa | 0V | 00:00:00 | 00:00:00 | 00:00:00 | |
| ARGUS2 | 2026-09-03 23:44:59 | 27.80575 | -82.47513 | 261° | 33km/h | 12312m | 4.4m/s | -50.1°C | 0% | 0hPa | 0V | 00:00:00 | 00:00:00 | 00:00:00 | |
| ARGUS2 | 2026-09-03 23:44:38 | 27.80478 | -82.47236 | 285° | 42km/h | 12202m | 4.6m/s | -49.2°C | 0% | 0hPa | 0V | 00:00:00 | 00:00:00 | 00:00:00 | |
| ARGUS2 | 2026-09-03 23:44:18 | 27.80380 | -82.46948 | 290° | 57km/h | 12093m | 6.4m/s | -48.3°C | 0% | 0hPa | 0V | 00:00:00 | 00:00:00 | 00:00:00 | |
| ARGUS2 | 2026-09-03 23:43:56 | 27.80290 | -82.46660 | 286° | 57km/h | 11980m | 4.7m/s | -47.3°C | 0% | 0hPa | 0V | 00:00:00 | 00:00:00 | 00:00:00 | |
| ARGUS2 | 2026-09-03 23:43:36 | 27.80188 | -82.46371 | 270° | 49km/h | 11880m | 6.4m/s | -46.5°C | 0% | 0hPa | 0V | 00:00:00 | 00:00:00 | 00:00:00 | |
| ARGUS2 | 2026-09-03 23:43:15 | 27.80100 | -82.46075 | 300° | 51km/h | 11771m | 5.4m/s | -45.7°C | 0% | 0hPa | 0V | 00:00:00 | 00:00:00 | 00:00:00 | |
| ARGUS2 | 2026-09-03 23:42:55 | 27.80024 | -82.45780 | 287° | 47km/h | 11667m | 4.7m/s | -44.8°C | 0% | 0hPa | 0V | 00:00:00 | 00:00:00 | 00:00:00 | |
| ARGUS2 | 2026-09-03 23:42:35 | 27.79945 | -82.45462 | 286° | 55km/h | 11554m | 5.2m/s | -43.9°C | 0% | 0hPa | 0V | 00:00:00 | 00:00:00 | 00:00:00 | |
| ARGUS2 | 2026-09-03 23:42:14 | 27.79863 | -82.45145 | 297° | 64km/h | 11448m | 5.6m/s | -42.9°C | 0% | 0hPa | 0V | 00:00:00 | 00:00:00 | 00:00:00 | |
| ARGUS2 | 2026-09-03 23:41:54 | 27.79779 | -82.44796 | 296° | 60km/h | 11332m | 5.0m/s | -41.9°C | 0% | 0hPa | 0V | 00:00:00 | 00:00:00 | 00:00:00 | |
| ARGUS2 | 2026-09-03 23:41:33 | 27.79690 | -82.44480 | 284° | 57km/h | 11225m | 4.8m/s | -41.0°C | 0% | 0hPa | 0V | 00:00:00 | 00:00:00 | 00:00:00 | |
| ARGUS2 | 2026-09-03 23:41:13 | 27.79586 | -82.44147 | 287° | 64km/h | 11109m | 5.5m/s | -40.1°C | 0% | 0hPa | 0V | 00:00:00 | 00:00:00 | 00:00:00 | |
| ARGUS2 | 2026-09-03 23:40:52 | 27.79477 | -82.43813 | 300° | 82km/h | 10993m | 6.9m/s | -39.1°C | 0% | 0hPa | 0V | 00:00:00 | 00:00:00 | 00:00:00 | |
| ARGUS2 | 2026-09-03 23:40:32 | 27.79375 | -82.43485 | 309° | 69km/h | 10858m | 5.5m/s | -38.0°C | 0% | 0hPa | 0V | 00:00:00 | 00:00:00 | 00:00:00 | |
| ARGUS2 | 2026-09-03 23:40:11 | 27.79254 | -82.43193 | 285° | 47km/h | 10732m | 5.9m/s | -37.0°C | 0% | 0hPa | 0V | 00:00:00 | 00:00:00 | 00:00:00 | |
| ARGUS2 | 2026-09-03 23:39:51 | 27.79124 | -82.42935 | 275° | 51km/h | 10601m | 6.6m/s | -36.0°C | 0% | 0hPa | 0V | 00:00:00 | 00:00:00 | 00:00:00 | |
| ARGUS2 | 2026-09-03 23:39:30 | 27.78989 | -82.42685 | 298° | 37km/h | 10473m | 8.3m/s | -35.0°C | 0% | 0hPa | 0V | 00:00:00 | 00:00:00 | 00:00:00 | |
| ARGUS2 | 2026-09-03 23:39:10 | 27.78828 | -82.42475 | 285° | 44km/h | 10336m | 6.3m/s | -34.0°C | 0% | 0hPa | 0V | 00:00:00 | 00:00:00 | 00:00:00 | |
| ARGUS2 | 2026-09-03 23:38:49 | 27.78642 | -82.42277 | 323° | 66km/h | 10203m | 7.1m/s | -33.0°C | 0% | 0hPa | 0V | 00:00:00 | 00:00:00 | 00:00:00 | |
| ARGUS2 | 2026-09-03 23:38:29 | 27.78413 | -82.42113 | 307° | 42km/h | 10073m | 6.3m/s | -32.2°C | 0% | 0hPa | 0V | 00:00:00 | 00:00:00 | 00:00:00 | |
| ARGUS2 | 2026-09-03 23:38:07 | 27.78223 | -82.42011 | 310° | 33km/h | 9943m | 5.8m/s | -31.5°C | 0% | 0hPa | 0V | 00:00:00 | 00:00:00 | 00:00:00 | |
| ARGUS2 | 2026-09-03 23:37:47 | 27.78075 | -82.41895 | 349° | 37km/h | 9812m | 5.8m/s | -31.4°C | 0% | 0hPa | 0V | 00:00:00 | 00:00:00 | 00:00:00 | |
| ARGUS2 | 2026-09-03 23:37:26 | 27.77920 | -82.41866 | 347° | 16km/h | 9689m | 4.9m/s | -30.4°C | 0% | 0hPa | 0V | 00:00:00 | 00:00:00 | 00:00:00 | |
| ARGUS2 | 2026-09-03 23:36:46 | 27.77562 | -82.41773 | 2° | 35km/h | 9472m | 5.5m/s | -28.8°C | 0% | 0hPa | 0V | 00:00:00 | 00:00:00 | 00:00:00 | |
| ARGUS2 | 2026-09-03 23:36:25 | 27.77371 | -82.41729 | 339° | 47km/h | 9376m | 4.7m/s | -28.1°C | 0% | 0hPa | 0V | 00:00:00 | 00:00:00 | 00:00:00 | |
| ARGUS2 | 2026-09-03 23:36:04 | 27.77185 | -82.41732 | 7° | 35km/h | 9277m | 4.7m/s | -27.5°C | 0% | 0hPa | 0V | 00:00:00 | 00:00:00 | 00:00:00 | |
| ARGUS2 | 2026-09-03 23:35:44 | 27.77022 | -82.41729 | 14° | 24km/h | 9183m | 4.4m/s | -26.9°C | 0% | 0hPa | 0V | 00:00:00 | 00:00:00 | 00:00:00 | |
| ARGUS2 | 2026-09-03 23:35:24 | 27.76858 | -82.41733 | 24° | 42km/h | 9071m | 6.2m/s | -26.0°C | 0% | 0hPa | 0V | 00:00:00 | 00:00:00 | 00:00:00 | |
| ARGUS2 | 2026-09-03 23:35:03 | 27.76716 | -82.41715 | 345° | 31km/h | 8960m | 6.5m/s | -25.1°C | 0% | 0hPa | 0V | 00:00:00 | 00:00:00 | 00:00:00 | |
| ARGUS2 | 2026-09-03 23:34:43 | 27.76588 | -82.41697 | 327° | 16km/h | 8850m | 4.3m/s | -24.5°C | 0% | 0hPa | 0V | 00:00:00 | 00:00:00 | 00:00:00 | |
| ARGUS2 | 2026-09-03 23:34:22 | 27.76475 | -82.41670 | 35° | 7km/h | 8745m | 6.3m/s | -23.7°C | 0% | 0hPa | 0V | 00:00:00 | 00:00:00 | 00:00:00 | |
| ARGUS2 | 2026-09-03 23:33:41 | 27.76248 | -82.41610 | 322° | 31km/h | 8524m | 5.0m/s | -22.0°C | 0% | 0hPa | 0V | 00:00:00 | 00:00:00 | 00:00:00 | |
| ARGUS2 | 2026-09-03 23:33:21 | 27.76122 | -82.41562 | 328° | 38km/h | 8418m | 3.4m/s | -21.1°C | 0% | 0hPa | 0V | 00:00:00 | 00:00:00 | 00:00:00 | |
| ARGUS2 | 2026-09-03 23:33:00 | 27.75967 | -82.41508 | 11° | 46km/h | 8319m | 5.2m/s | -20.3°C | 0% | 0hPa | 0V | 00:00:00 | 00:00:00 | 00:00:00 | |
| ARGUS2 | 2026-09-03 23:32:19 | 27.75667 | -82.41477 | 17° | 20km/h | 8084m | 3.9m/s | -18.7°C | 0% | 0hPa | 0V | 00:00:00 | 00:00:00 | 00:00:00 | |
| ARGUS2 | 2026-09-03 23:31:58 | 27.75532 | -82.41484 | 357° | 20km/h | 7977m | 5.5m/s | -18.3°C | 0% | 0hPa | 0V | 00:00:00 | 00:00:00 | 00:00:00 | |
| ARGUS2 | 2026-09-03 23:31:37 | 27.75402 | -82.41506 | 2° | 31km/h | 7857m | 6.6m/s | -17.6°C | 0% | 0hPa | 0V | 00:00:00 | 00:00:00 | 00:00:00 | |
| ARGUS2 | 2026-09-03 23:31:17 | 27.75286 | -82.41509 | 5° | 33km/h | 7737m | 5.9m/s | -16.6°C | 0% | 0hPa | 0V | 00:00:00 | 00:00:00 | 00:00:00 | |
| ARGUS2 | 2026-09-03 23:30:57 | 27.75157 | -82.41514 | 9° | 18km/h | 7624m | 3.9m/s | -15.8°C | 0% | 0hPa | 0V | 00:00:00 | 00:00:00 | 00:00:00 | |
| ARGUS2 | 2026-09-03 23:30:36 | 27.75033 | -82.41525 | 349° | 42km/h | 7509m | 7.8m/s | -15.3°C | 0% | 0hPa | 0V | 00:00:00 | 00:00:00 | 00:00:00 | |
| ARGUS2 | 2026-09-03 23:30:16 | 27.74891 | -82.41534 | 357° | 44km/h | 7397m | 6.2m/s | -14.5°C | 0% | 0hPa | 0V | 00:00:00 | 00:00:00 | 00:00:00 | |
| ARGUS2 | 2026-09-03 23:29:55 | 27.74743 | -82.41479 | 332° | 29km/h | 7296m | 5.5m/s | -13.8°C | 0% | 0hPa | 0V | 00:00:00 | 00:00:00 | 00:00:00 | |
| ARGUS2 | 2026-09-03 23:29:35 | 27.74612 | -82.41481 | 15° | 22km/h | 7170m | 6.1m/s | -13.4°C | 0% | 0hPa | 0V | 00:00:00 | 00:00:00 | 00:00:00 | |
| ARGUS2 | 2026-09-03 23:29:14 | 27.74520 | -82.41446 | 349° | 15km/h | 7063m | 5.7m/s | -12.6°C | 0% | 0hPa | 0V | 00:00:00 | 00:00:00 | 00:00:00 | |
| ARGUS2 | 2026-09-03 23:28:54 | 27.74440 | -82.41411 | 5° | 29km/h | 6964m | 3.4m/s | -11.9°C | 0% | 0hPa | 0V | 00:00:00 | 00:00:00 | 00:00:00 | |
| ARGUS2 | 2026-09-03 23:28:33 | 27.74371 | -82.41371 | 6° | 9km/h | 6874m | 3.9m/s | -11.3°C | 0% | 0hPa | 0V | 00:00:00 | 00:00:00 | 00:00:00 | |
| ARGUS2 | 2026-09-03 23:28:13 | 27.74287 | -82.41338 | 349° | 26km/h | 6786m | 4.9m/s | -10.9°C | 0% | 0hPa | 0V | 00:00:00 | 00:00:00 | 00:00:00 | |
| ARGUS2 | 2026-09-03 23:27:51 | 27.74203 | -82.41322 | 353° | 33km/h | 6703m | 4.1m/s | -10.5°C | 0% | 0hPa | 0V | 00:00:00 | 00:00:00 | 00:00:00 | |
| ARGUS2 | 2026-09-03 23:27:31 | 27.74115 | -82.41298 | 5° | 27km/h | 6617m | 3.6m/s | -10.0°C | 0% | 0hPa | 0V | 00:00:00 | 00:00:00 | 00:00:00 | |
| ARGUS2 | 2026-09-03 23:27:11 | 27.74023 | -82.41295 | 342° | 22km/h | 6536m | 4.2m/s | -9.8°C | 0% | 0hPa | 0V | 00:00:00 | 00:00:00 | 00:00:00 | |
| ARGUS2 | 2026-09-03 23:26:50 | 27.73915 | -82.41312 | 32° | 9km/h | 6463m | 3.2m/s | -9.2°C | 0% | 0hPa | 0V | 00:00:00 | 00:00:00 | 00:00:00 | |
| ARGUS2 | 2026-09-03 23:26:30 | 27.73786 | -82.41336 | 14° | 20km/h | 6378m | 3.1m/s | -8.4°C | 0% | 0hPa | 0V | 00:00:00 | 00:00:00 | 00:00:00 | |
| ARGUS2 | 2026-09-03 23:26:09 | 27.73670 | -82.41368 | 360° | 22km/h | 6295m | 4.9m/s | -8.1°C | 0% | 0hPa | 0V | 00:00:00 | 00:00:00 | 00:00:00 | |
| ARGUS2 | 2026-09-03 23:25:49 | 27.73573 | -82.41414 | 348° | 29km/h | 6187m | 6.2m/s | -7.6°C | 0% | 0hPa | 0V | 00:00:00 | 00:00:00 | 00:00:00 | |
| ARGUS2 | 2026-09-03 23:25:29 | 27.73471 | -82.41427 | 354° | 20km/h | 6105m | 5.0m/s | -7.1°C | 0% | 0hPa | 0V | 00:00:00 | 00:00:00 | 00:00:00 | |
| ARGUS2 | 2026-09-03 23:25:08 | 27.73360 | -82.41443 | 333° | 9km/h | 6009m | 4.3m/s | -6.5°C | 0% | 0hPa | 0V | 00:00:00 | 00:00:00 | 00:00:00 | |
| ARGUS2 | 2026-09-03 23:24:47 | 27.73278 | -82.41441 | 24° | 18km/h | 5921m | 5.3m/s | -5.5°C | 0% | 0hPa | 0V | 00:00:00 | 00:00:00 | 00:00:00 | |
| ARGUS2 | 2026-09-03 23:24:27 | 27.73187 | -82.41439 | 356° | 20km/h | 5834m | 3.6m/s | -5.0°C | 0% | 0hPa | 0V | 00:00:00 | 00:00:00 | 00:00:00 | |
| ARGUS2 | 2026-09-03 23:24:06 | 27.73101 | -82.41440 | 11° | 24km/h | 5755m | 4.5m/s | -5.0°C | 0% | 0hPa | 0V | 00:00:00 | 00:00:00 | 00:00:00 | |
| ARGUS2 | 2026-09-03 23:23:46 | 27.73017 | -82.41430 | 12° | 16km/h | 5673m | 4.3m/s | -4.9°C | 0% | 0hPa | 0V | 00:00:00 | 00:00:00 | 00:00:00 | |
| ARGUS2 | 2026-09-03 23:23:25 | 27.72933 | -82.41423 | 4° | 11km/h | 5596m | 3.7m/s | -4.5°C | 0% | 0hPa | 0V | 00:00:00 | 00:00:00 | 00:00:00 | |
| ARGUS2 | 2026-09-03 23:23:05 | 27.72868 | -82.41395 | 5° | 27km/h | 5502m | 3.7m/s | -4.1°C | 0% | 0hPa | 0V | 00:00:00 | 00:00:00 | 00:00:00 | |
| ARGUS2 | 2026-09-03 23:22:44 | 27.72814 | -82.41391 | 328° | 20km/h | 5411m | 2.6m/s | -3.5°C | 0% | 0hPa | 0V | 00:00:00 | 00:00:00 | 00:00:00 | |
| ARGUS2 | 2026-09-03 23:22:23 | 27.72740 | -82.41384 | 358° | 20km/h | 5329m | 4.5m/s | -2.9°C | 0% | 0hPa | 0V | 00:00:00 | 00:00:00 | 00:00:00 | |
| ARGUS2 | 2026-09-03 23:22:03 | 27.72658 | -82.41380 | 303° | 11km/h | 5232m | 4.7m/s | -2.4°C | 0% | 0hPa | 0V | 00:00:00 | 00:00:00 | 00:00:00 | |
| ARGUS2 | 2026-09-03 23:21:42 | 27.72587 | -82.41369 | 326° | 15km/h | 5134m | 4.8m/s | -2.0°C | 0% | 0hPa | 0V | 00:00:00 | 00:00:00 | 00:00:00 | |
| ARGUS2 | 2026-09-03 23:21:02 | 27.72399 | -82.41356 | 22° | 24km/h | 4945m | 3.9m/s | -1.0°C | 0% | 0hPa | 0V | 00:00:00 | 00:00:00 | 00:00:00 | |
| ARGUS2 | 2026-09-03 23:20:40 | 27.72319 | -82.41353 | 36° | 18km/h | 4852m | 3.7m/s | -0.2°C | 0% | 0hPa | 0V | 00:00:00 | 00:00:00 | 00:00:00 | |
| ARGUS2 | 2026-09-03 23:20:20 | 27.72251 | -82.41340 | 329° | 7km/h | 4760m | 5.1m/s | 0.5°C | 0% | 0hPa | 0V | 00:00:00 | 00:00:00 | 00:00:00 | |
| ARGUS2 | 2026-09-03 23:20:00 | 27.72180 | -82.41321 | 2° | 22km/h | 4658m | 6.1m/s | 1.4°C | 0% | 0hPa | 0V | 00:00:00 | 00:00:00 | 00:00:00 | |
| ARGUS2 | 2026-09-03 23:19:39 | 27.72130 | -82.41347 | 69° | 15km/h | 4560m | 3.9m/s | 2.4°C | 0% | 0hPa | 0V | 00:00:00 | 00:00:00 | 00:00:00 | |
| ARGUS2 | 2026-09-03 23:19:19 | 27.72102 | -82.41353 | 323° | 15km/h | 4469m | 4.0m/s | 2.8°C | 0% | 0hPa | 0V | 00:00:00 | 00:00:00 | 00:00:00 | |
| ARGUS2 | 2026-09-03 23:18:58 | 27.72085 | -82.41364 | 16° | 18km/h | 4389m | 4.8m/s | 3.2°C | 0% | 0hPa | 0V | 00:00:00 | 00:00:00 | 00:00:00 | |
| ARGUS2 | 2026-09-03 23:18:38 | 27.72077 | -82.41373 | 45° | 22km/h | 4288m | 4.1m/s | 3.3°C | 0% | 0hPa | 0V | 00:00:00 | 00:00:00 | 00:00:00 | |
| ARGUS2 | 2026-09-03 23:18:17 | 27.72044 | -82.41403 | 352° | 13km/h | 4186m | 4.9m/s | 4.2°C | 0% | 0hPa | 0V | 00:00:00 | 00:00:00 | 00:00:00 | |
| ARGUS2 | 2026-09-03 23:17:57 | 27.72006 | -82.41455 | 343° | 2km/h | 4094m | 5.3m/s | 5.0°C | 0% | 0hPa | 0V | 00:00:00 | 00:00:00 | 00:00:00 | |
| ARGUS2 | 2026-09-03 23:17:35 | 27.71964 | -82.41484 | 237° | 15km/h | 3990m | 4.8m/s | 5.5°C | 0% | 0hPa | 0V | 00:00:00 | 00:00:00 | 00:00:00 | |
| ARGUS2 | 2026-09-03 23:17:14 | 27.71966 | -82.41495 | 360° | 18km/h | 3887m | 6.5m/s | 6.0°C | 0% | 0hPa | 0V | 00:00:00 | 00:00:00 | 00:00:00 | |
| ARGUS2 | 2026-09-03 23:16:53 | 27.71954 | -82.41482 | 276° | 9km/h | 3782m | 4.3m/s | 6.3°C | 0% | 0hPa | 0V | 00:00:00 | 00:00:00 | 00:00:00 | |
| ARGUS2 | 2026-09-03 23:16:33 | 27.71931 | -82.41453 | 284° | 13km/h | 3692m | 4.0m/s | 6.7°C | 0% | 0hPa | 0V | 00:00:00 | 00:00:00 | 00:00:00 | |
| ARGUS2 | 2026-09-03 23:16:09 | 27.71901 | -82.41443 | 358° | 20km/h | 3581m | 5.1m/s | 7.4°C | 0% | 0hPa | 0V | 00:00:00 | 00:00:00 | 00:00:00 | |
| ARGUS2 | 2026-09-03 23:15:48 | 27.71874 | -82.41419 | 328° | 15km/h | 3481m | 4.5m/s | 8.1°C | 0% | 0hPa | 0V | 00:00:00 | 00:00:00 | 00:00:00 | |
| ARGUS2 | 2026-09-03 23:15:27 | 27.71825 | -82.41390 | 304° | 18km/h | 3365m | 5.4m/s | 8.9°C | 0% | 0hPa | 0V | 00:00:00 | 00:00:00 | 00:00:00 | |
| ARGUS2 | 2026-09-03 23:15:01 | 27.71769 | -82.41342 | 102° | 7km/h | 3245m | 5.3m/s | 9.2°C | 0% | 0hPa | 0V | 00:00:00 | 00:00:00 | 00:00:00 | |
| ARGUS2 | 2026-09-03 23:14:34 | 27.71751 | -82.41320 | 5° | 18km/h | 3109m | 6.7m/s | 10.0°C | 0% | 0hPa | 0V | 00:00:00 | 00:00:00 | 00:00:00 | |
| ARGUS2 | 2026-09-03 23:14:05 | 27.71676 | -82.41280 | 20° | 20km/h | 2951m | 3.5m/s | 11.0°C | 0% | 0hPa | 0V | 00:00:00 | 00:00:00 | 00:00:00 | |
| ARGUS2 | 2026-09-03 23:13:39 | 27.71593 | -82.41240 | 296° | 20km/h | 2813m | 6.4m/s | 11.5°C | 0% | 0hPa | 0V | 00:00:00 | 00:00:00 | 00:00:00 | |
| ARGUS2 | 2026-09-03 23:13:19 | 27.71539 | -82.41196 | 328° | 13km/h | 2718m | 6.2m/s | 11.9°C | 0% | 0hPa | 0V | 00:00:00 | 00:00:00 | 00:00:00 | |
| ARGUS2 | 2026-09-03 23:12:58 | 27.71479 | -82.41179 | 5° | 20km/h | 2628m | 5.0m/s | 12.4°C | 0% | 0hPa | 0V | 00:00:00 | 00:00:00 | 00:00:00 | |
| ARGUS2 | 2026-09-03 23:12:37 | 27.71406 | -82.41151 | 9° | 24km/h | 2537m | 3.3m/s | 12.9°C | 0% | 0hPa | 0V | 00:00:00 | 00:00:00 | 00:00:00 | |
| ARGUS2 | 2026-09-03 23:12:17 | 27.71317 | -82.41093 | 360° | 5km/h | 2438m | 4.6m/s | 13.4°C | 0% | 0hPa | 0V | 00:00:00 | 00:00:00 | 00:00:00 | |
| ARGUS2 | 2026-09-03 23:11:56 | 27.71237 | -82.41039 | 13° | 7km/h | 2346m | 3.7m/s | 13.9°C | 0% | 0hPa | 0V | 00:00:00 | 00:00:00 | 00:00:00 | |
| ARGUS2 | 2026-09-03 23:11:36 | 27.71139 | -82.40971 | 314° | 13km/h | 2238m | 7.1m/s | 14.4°C | 0% | 0hPa | 0V | 00:00:00 | 00:00:00 | 00:00:00 | |
| ARGUS2 | 2026-09-03 23:11:14 | 27.71056 | -82.40914 | 329° | 26km/h | 2129m | 5.3m/s | 15.1°C | 0% | 0hPa | 0V | 00:00:00 | 00:00:00 | 00:00:00 | |
| ARGUS2 | 2026-09-03 23:10:53 | 27.70991 | -82.40854 | 312° | 22km/h | 2018m | 6.7m/s | 15.2°C | 0% | 0hPa | 0V | 00:00:00 | 00:00:00 | 00:00:00 | |
| ARGUS2 | 2026-09-03 23:10:31 | 27.70936 | -82.40814 | 340° | 22km/h | 1887m | 5.3m/s | 14.9°C | 0% | 0hPa | 0V | 00:00:00 | 00:00:00 | 00:00:00 | |
| ARGUS2 | 2026-09-03 23:10:09 | 27.70900 | -82.40726 | 5° | 16km/h | 1769m | 4.9m/s | 15.7°C | 0% | 0hPa | 0V | 00:00:00 | 00:00:00 | 00:00:00 | |
| ARGUS2 | 2026-09-03 23:09:48 | 27.70864 | -82.40677 | 237° | 11km/h | 1656m | 6.7m/s | 16.3°C | 0% | 0hPa | 0V | 00:00:00 | 00:00:00 | 00:00:00 | |
| ARGUS2 | 2026-09-03 23:09:14 | 27.70808 | -82.40578 | 331° | 16km/h | 1470m | 6.2m/s | 18.0°C | 0% | 0hPa | 0V | 00:00:00 | 00:00:00 | 00:00:00 |